SIA22 KEWR-WSSS
Flight info
| Callsign | SIA22 |
|---|---|
| Flight time | N/A |
| Altitude | 33000 |
| Route | MERIT DCT HFD DCT PUT DCT TUSKY DCT YHZ/N0495F350 Q846 NOTOP DCT JOOPY/M085F350 DCT 49N050W 51N040W 51N030W 51N020W DCT DINIM DCT ELSOX DCT LESLU/N0485F350 DCT OXLOW/N0482F370 DCT KONAN UL607 KOK DCT REMBA DCT MATUG DCT AMASI DCT BOMBI DCT TENLO/N0490F390 DCT DEXIT DCT PESAT DCT TEGRI DCT UDROS UM859 KARDE UL851 TBN UR317 REBLO M11 LUSAL N199 BAKUV N701 LARGI B701 KRS/N0492F410 A240 INRAK B449 DOLOS B475 RUBAD A846 RANAH L750 MERUN G452 LKN R460 CEA L507 BGO M626 IKOGA Y24 PASVA Y514 NUFFA DCT PIBAP DCT PASPU DCT NYLON |
| Aircraft | A359/H-SDE1E2E3GHIJ1J2J3J5M1P2RWXYZ/LB1D1 |
Departure
| Time | 2026-04-21 20:17 |
|---|---|
| Airport | Newark Liberty International Airport (KEWR) |
Arrival
| Time | N/A |
|---|---|
| Airport | Singapore Changi Airport (WSSS) |
| Time | Latitude | Longitude | Altitude | Speed | Heading |
|---|---|---|---|---|---|
| 2026-04-21 19:56 | 40.68229 | -74.18519 | 29 ft | 0 kts | 116° |
| 2026-04-21 20:10 | 40.68230 | -74.18523 | 29 ft | 1 kts | 116° |
| 2026-04-21 20:10 | 40.68229 | -74.18520 | 29 ft | 3 kts | 116° |
| 2026-04-21 20:11 | 40.68200 | -74.18443 | 27 ft | 12 kts | 112° |
| 2026-04-21 20:11 | 40.68224 | -74.18374 | 29 ft | 10 kts | 26° |
| 2026-04-21 20:11 | 40.68271 | -74.18280 | 27 ft | 16 kts | 88° |
| 2026-04-21 20:11 | 40.68279 | -74.18082 | 28 ft | 24 kts | 54° |
| 2026-04-21 20:12 | 40.68373 | -74.17915 | 27 ft | 27 kts | 69° |
| 2026-04-21 20:12 | 40.68464 | -74.17706 | 30 ft | 28 kts | 50° |
| 2026-04-21 20:12 | 40.68563 | -74.17584 | 31 ft | 30 kts | 34° |
| 2026-04-21 20:12 | 40.68796 | -74.17426 | 29 ft | 27 kts | 25° |
| 2026-04-21 20:13 | 40.68967 | -74.17318 | 31 ft | 27 kts | 26° |
| 2026-04-21 20:13 | 40.69139 | -74.17207 | 27 ft | 28 kts | 26° |
| 2026-04-21 20:13 | 40.69308 | -74.17100 | 28 ft | 27 kts | 26° |
| 2026-04-21 20:13 | 40.69472 | -74.16996 | 30 ft | 25 kts | 25° |
| 2026-04-21 20:14 | 40.69632 | -74.16894 | 28 ft | 26 kts | 25° |
| 2026-04-21 20:14 | 40.69774 | -74.16772 | 27 ft | 24 kts | 58° |
| 2026-04-21 20:14 | 40.69780 | -74.16578 | 25 ft | 20 kts | 136° |
| 2026-04-21 20:14 | 40.69687 | -74.16581 | 26 ft | 0 kts | 204° |
| 2026-04-21 20:16 | 40.69672 | -74.16591 | 29 ft | 13 kts | 206° |
| 2026-04-21 20:17 | 40.69392 | -74.16767 | 29 ft | 76 kts | 205° |
| 2026-04-21 20:17 | 40.68742 | -74.17179 | 29 ft | 132 kts | 205° |
| 2026-04-21 20:17 | 40.67788 | -74.17787 | 242 ft | 158 kts | 202° |
| 2026-04-21 20:17 | 40.66769 | -74.18436 | 812 ft | 162 kts | 203° |
| 2026-04-21 20:18 | 40.66097 | -74.18858 | 1245 ft | 164 kts | 206° |
| 2026-04-21 20:18 | 40.64571 | -74.18736 | 1506 ft | 187 kts | 148° |
| 2026-04-21 20:18 | 40.63811 | -74.17272 | 1736 ft | 210 kts | 103° |
| 2026-04-21 20:18 | 40.64010 | -74.15296 | 1846 ft | 234 kts | 62° |
| 2026-04-21 20:19 | 40.65193 | -74.13728 | 2057 ft | 253 kts | 30° |
| 2026-04-21 20:19 | 40.66837 | -74.12822 | 2606 ft | 258 kts | 15° |
| 2026-04-21 20:19 | 40.68587 | -74.12259 | 3175 ft | 262 kts | 9° |
| 2026-04-21 20:19 | 40.70378 | -74.11756 | 3734 ft | 265 kts | 14° |
| 2026-04-21 20:20 | 40.72014 | -74.10622 | 4273 ft | 269 kts | 35° |
| 2026-04-21 20:20 | 40.73447 | -74.09024 | 4832 ft | 271 kts | 44° |
| 2026-04-21 20:20 | 40.74740 | -74.07210 | 5464 ft | 272 kts | 47° |
| 2026-04-21 20:20 | 40.75972 | -74.05307 | 6114 ft | 273 kts | 47° |
| 2026-04-21 20:21 | 40.77192 | -74.03382 | 6753 ft | 274 kts | 46° |
| 2026-04-21 20:21 | 40.78431 | -74.01460 | 7296 ft | 276 kts | 44° |
| 2026-04-21 20:21 | 40.79701 | -73.99540 | 7881 ft | 278 kts | 42° |
| 2026-04-21 20:21 | 40.80988 | -73.97636 | 8524 ft | 278 kts | 41° |
| 2026-04-21 20:22 | 40.82288 | -73.95742 | 9145 ft | 279 kts | 40° |
| 2026-04-21 20:22 | 40.84941 | -73.91918 | 10287 ft | 289 kts | 39° |
| 2026-04-21 20:22 | 40.86341 | -73.89915 | 10543 ft | 305 kts | 39° |
| 2026-04-21 20:23 | 40.87816 | -73.87808 | 10776 ft | 320 kts | 39° |
| 2026-04-21 20:23 | 40.89362 | -73.85588 | 11014 ft | 335 kts | 40° |
| 2026-04-21 20:23 | 40.90969 | -73.83265 | 11266 ft | 350 kts | 40° |
| 2026-04-21 20:23 | 40.92640 | -73.80838 | 11495 ft | 364 kts | 40° |
| 2026-04-21 20:24 | 40.94369 | -73.78316 | 11781 ft | 375 kts | 41° |
| 2026-04-21 20:24 | 40.96127 | -73.75742 | 12252 ft | 380 kts | 41° |
| 2026-04-21 20:24 | 40.97901 | -73.73138 | 12795 ft | 383 kts | 41° |
| 2026-04-21 20:24 | 40.99692 | -73.70510 | 13342 ft | 386 kts | 41° |
| 2026-04-21 20:25 | 41.01497 | -73.67864 | 13869 ft | 389 kts | 41° |
| 2026-04-21 20:25 | 41.03322 | -73.65193 | 14404 ft | 392 kts | 40° |
| 2026-04-21 20:25 | 41.05157 | -73.62505 | 14893 ft | 395 kts | 40° |
| 2026-04-21 20:25 | 41.07006 | -73.59798 | 15375 ft | 397 kts | 40° |
| 2026-04-21 20:26 | 41.08863 | -73.57077 | 15876 ft | 400 kts | 40° |
| 2026-04-21 20:26 | 41.10102 | -73.55261 | 16180 ft | 402 kts | 40° |
| 2026-04-21 20:26 | 41.12619 | -73.51569 | 16841 ft | 405 kts | 40° |
| 2026-04-21 20:26 | 41.14510 | -73.48792 | 17342 ft | 407 kts | 40° |
| 2026-04-21 20:27 | 41.16387 | -73.46033 | 17812 ft | 409 kts | 40° |
| 2026-04-21 20:27 | 41.18301 | -73.43218 | 18310 ft | 412 kts | 40° |
| 2026-04-21 20:27 | 41.20226 | -73.40380 | 18789 ft | 415 kts | 39° |
| 2026-04-21 20:27 | 41.22163 | -73.37524 | 19214 ft | 418 kts | 39° |
| 2026-04-21 20:28 | 41.24086 | -73.34687 | 19642 ft | 420 kts | 39° |
| 2026-04-21 20:28 | 41.26044 | -73.31793 | 20117 ft | 422 kts | 39° |
| 2026-04-21 20:28 | 41.27343 | -73.29870 | 20428 ft | 424 kts | 39° |
| 2026-04-21 20:28 | 41.29317 | -73.26948 | 20933 ft | 425 kts | 39° |
| 2026-04-21 20:29 | 41.31295 | -73.24017 | 21389 ft | 428 kts | 39° |
| 2026-04-21 20:29 | 41.33288 | -73.21063 | 21802 ft | 430 kts | 39° |
| 2026-04-21 20:29 | 41.35290 | -73.18091 | 22253 ft | 433 kts | 39° |
| 2026-04-21 20:29 | 41.37276 | -73.15051 | 22716 ft | 439 kts | 43° |
| 2026-04-21 20:30 | 41.39053 | -73.11683 | 23198 ft | 448 kts | 48° |
| 2026-04-21 20:30 | 41.40727 | -73.08164 | 23605 ft | 453 kts | 49° |
| 2026-04-21 20:30 | 41.42361 | -73.04552 | 23995 ft | 457 kts | 50° |
| 2026-04-21 20:30 | 41.43972 | -73.00892 | 24345 ft | 460 kts | 51° |
| 2026-04-21 20:31 | 41.45580 | -72.97199 | 24719 ft | 462 kts | 51° |
| 2026-04-21 20:31 | 41.47195 | -72.93488 | 25121 ft | 463 kts | 50° |
| 2026-04-21 20:31 | 41.48814 | -72.89772 | 25511 ft | 464 kts | 50° |
| 2026-04-21 20:31 | 41.50443 | -72.86047 | 25867 ft | 466 kts | 50° |
| 2026-04-21 20:32 | 41.52081 | -72.82309 | 26205 ft | 468 kts | 50° |
| 2026-04-21 20:32 | 41.53730 | -72.78548 | 26566 ft | 470 kts | 50° |
| 2026-04-21 20:32 | 41.55386 | -72.74770 | 26903 ft | 472 kts | 50° |
| 2026-04-21 20:32 | 41.57047 | -72.70977 | 27257 ft | 474 kts | 50° |
| 2026-04-21 20:33 | 41.58715 | -72.67162 | 27598 ft | 477 kts | 50° |
| 2026-04-21 20:33 | 41.60387 | -72.63334 | 27911 ft | 479 kts | 50° |
| 2026-04-21 20:33 | 41.62067 | -72.59482 | 28251 ft | 480 kts | 50° |
| 2026-04-21 20:33 | 41.63746 | -72.55622 | 28646 ft | 480 kts | 50° |
| 2026-04-21 20:34 | 41.65437 | -72.51763 | 28958 ft | 481 kts | 50° |
| 2026-04-21 20:34 | 41.67139 | -72.47968 | 29240 ft | 483 kts | 49° |
| 2026-04-21 20:34 | 41.68886 | -72.44114 | 29443 ft | 486 kts | 49° |
| 2026-04-21 20:34 | 41.70647 | -72.40239 | 29716 ft | 488 kts | 49° |
| 2026-04-21 20:35 | 41.72408 | -72.36351 | 30028 ft | 489 kts | 49° |
| 2026-04-21 20:35 | 41.74161 | -72.32460 | 30434 ft | 487 kts | 49° |
| 2026-04-21 20:35 | 41.75905 | -72.28574 | 30770 ft | 486 kts | 49° |
| 2026-04-21 20:35 | 41.77639 | -72.24702 | 31100 ft | 485 kts | 49° |
| 2026-04-21 20:36 | 41.79365 | -72.20838 | 31485 ft | 481 kts | 49° |
| 2026-04-21 20:36 | 41.81078 | -72.16997 | 31782 ft | 480 kts | 49° |
| 2026-04-21 20:36 | 41.82789 | -72.13162 | 32046 ft | 480 kts | 49° |
| 2026-04-21 20:36 | 41.84504 | -72.09318 | 32259 ft | 480 kts | 49° |
| 2026-04-21 20:37 | 41.86218 | -72.05473 | 32488 ft | 480 kts | 49° |
| 2026-04-21 20:37 | 41.87927 | -72.01631 | 32726 ft | 479 kts | 50° |
| 2026-04-21 20:37 | 41.89635 | -71.97786 | 32992 ft | 479 kts | 50° |
| 2026-04-21 20:37 | 41.91336 | -71.93947 | 33224 ft | 478 kts | 50° |
| 2026-04-21 20:38 | 41.94766 | -71.86214 | 33309 ft | 487 kts | 50° |
| 2026-04-21 20:38 | 41.98077 | -71.78220 | 33307 ft | 493 kts | 54° |
| 2026-04-21 20:39 | 42.00974 | -71.69899 | 33303 ft | 495 kts | 56° |
| 2026-04-21 20:39 | 42.03866 | -71.61496 | 33283 ft | 494 kts | 55° |
| 2026-04-21 20:40 | 42.06816 | -71.53147 | 33295 ft | 494 kts | 55° |
| 2026-04-21 20:40 | 42.09801 | -71.44804 | 33297 ft | 495 kts | 54° |
| 2026-04-21 20:41 | 42.12789 | -71.36446 | 33299 ft | 495 kts | 54° |
| 2026-04-21 20:41 | 42.15769 | -71.28078 | 33302 ft | 495 kts | 54° |
| 2026-04-21 20:42 | 42.18741 | -71.19700 | 33313 ft | 495 kts | 54° |
| 2026-04-21 20:42 | 42.21706 | -71.11317 | 33295 ft | 495 kts | 55° |
| 2026-04-21 20:43 | 42.24664 | -71.02924 | 33325 ft | 495 kts | 55° |
| 2026-04-21 20:43 | 42.27615 | -70.94526 | 33322 ft | 495 kts | 55° |
| 2026-04-21 20:44 | 42.30562 | -70.86118 | 33345 ft | 496 kts | 55° |
| 2026-04-21 20:44 | 42.33518 | -70.77671 | 33321 ft | 499 kts | 55° |
| 2026-04-21 20:45 | 42.36457 | -70.69234 | 33327 ft | 499 kts | 55° |
| 2026-04-21 20:45 | 42.39409 | -70.60728 | 33334 ft | 500 kts | 55° |
| 2026-04-21 20:46 | 42.42357 | -70.52211 | 33350 ft | 500 kts | 56° |
| 2026-04-21 20:46 | 42.45314 | -70.43653 | 33345 ft | 504 kts | 56° |
| 2026-04-21 20:47 | 42.48277 | -70.35040 | 33346 ft | 504 kts | 56° |
| 2026-04-21 20:47 | 42.51231 | -70.26420 | 33357 ft | 505 kts | 56° |
| 2026-04-21 20:48 | 42.54185 | -70.17780 | 33346 ft | 505 kts | 57° |
| 2026-04-21 20:48 | 42.57134 | -70.09124 | 33359 ft | 506 kts | 57° |
| 2026-04-21 20:49 | 42.60078 | -70.00460 | 33361 ft | 506 kts | 57° |
| 2026-04-21 20:49 | 42.63015 | -69.91791 | 33367 ft | 506 kts | 57° |
| 2026-04-21 20:50 | 42.65950 | -69.83096 | 33361 ft | 507 kts | 58° |
| 2026-04-21 20:50 | 42.68882 | -69.74384 | 33358 ft | 507 kts | 58° |
| 2026-04-21 20:51 | 42.71810 | -69.65656 | 33358 ft | 507 kts | 58° |
| 2026-04-21 20:51 | 42.74731 | -69.56922 | 33358 ft | 507 kts | 58° |
| 2026-04-21 20:52 | 42.77645 | -69.48181 | 33364 ft | 508 kts | 59° |
| 2026-04-21 20:52 | 42.80566 | -69.39391 | 33358 ft | 509 kts | 59° |
| 2026-04-21 20:53 | 42.83477 | -69.30603 | 33360 ft | 509 kts | 59° |
| 2026-04-21 20:53 | 42.86382 | -69.21802 | 33360 ft | 509 kts | 59° |
| 2026-04-21 20:54 | 42.89263 | -69.13046 | 33357 ft | 510 kts | 60° |
| 2026-04-21 20:54 | 42.92166 | -69.04197 | 33362 ft | 511 kts | 60° |
| 2026-04-21 20:55 | 42.95062 | -68.95334 | 33357 ft | 511 kts | 60° |
| 2026-04-21 20:55 | 42.97953 | -68.86461 | 33359 ft | 511 kts | 60° |
| 2026-04-21 20:56 | 43.00843 | -68.77565 | 33358 ft | 513 kts | 61° |
| 2026-04-21 20:56 | 43.03732 | -68.68638 | 33357 ft | 514 kts | 61° |
| 2026-04-21 20:57 | 43.06615 | -68.59696 | 33360 ft | 514 kts | 61° |
| 2026-04-21 20:57 | 43.09491 | -68.50749 | 33359 ft | 514 kts | 61° |
| 2026-04-21 20:58 | 43.12361 | -68.41792 | 33364 ft | 514 kts | 61° |
| 2026-04-21 20:58 | 43.15226 | -68.32821 | 33356 ft | 515 kts | 62° |
| 2026-04-21 20:59 | 43.18088 | -68.23825 | 33356 ft | 515 kts | 62° |
| 2026-04-21 20:59 | 43.20946 | -68.14813 | 33356 ft | 515 kts | 62° |
| 2026-04-21 21:00 | 43.23795 | -68.05794 | 33378 ft | 515 kts | 62° |
| 2026-04-21 21:00 | 43.26640 | -67.96766 | 33363 ft | 516 kts | 62° |
| 2026-04-21 21:01 | 43.29477 | -67.87728 | 33350 ft | 516 kts | 62° |
| 2026-04-21 21:01 | 43.32310 | -67.78677 | 33346 ft | 516 kts | 63° |
| 2026-04-21 21:02 | 43.35135 | -67.69614 | 33346 ft | 516 kts | 63° |
| 2026-04-21 21:02 | 43.37954 | -67.60539 | 33346 ft | 517 kts | 63° |
| 2026-04-21 21:03 | 43.40751 | -67.51505 | 33347 ft | 517 kts | 63° |
| 2026-04-21 21:03 | 43.43559 | -67.42403 | 33344 ft | 517 kts | 63° |
| 2026-04-21 21:04 | 43.46357 | -67.33299 | 33344 ft | 517 kts | 63° |
| 2026-04-21 21:04 | 43.49151 | -67.24183 | 33344 ft | 517 kts | 64° |
| 2026-04-21 21:05 | 43.51937 | -67.15056 | 33341 ft | 517 kts | 64° |
| 2026-04-21 21:05 | 43.54714 | -67.05926 | 33341 ft | 517 kts | 64° |
| 2026-04-21 21:06 | 43.57759 | -66.96986 | 33333 ft | 514 kts | 58° |
| 2026-04-21 21:06 | 43.61165 | -66.88329 | 33333 ft | 514 kts | 58° |
| 2026-04-21 21:07 | 43.64625 | -66.79705 | 33331 ft | 514 kts | 58° |
| 2026-04-21 21:07 | 43.68086 | -66.71065 | 33326 ft | 514 kts | 58° |
| 2026-04-21 21:08 | 43.71532 | -66.62411 | 33327 ft | 514 kts | 58° |
| 2026-04-21 21:08 | 43.74971 | -66.53735 | 33321 ft | 514 kts | 59° |
| 2026-04-21 21:09 | 43.78378 | -66.45109 | 33308 ft | 514 kts | 59° |
| 2026-04-21 21:09 | 43.81801 | -66.36419 | 33303 ft | 514 kts | 59° |
| 2026-04-21 21:10 | 43.85220 | -66.27710 | 33302 ft | 514 kts | 59° |
| 2026-04-21 21:10 | 43.88630 | -66.19000 | 33293 ft | 514 kts | 59° |
| 2026-04-21 21:11 | 43.92035 | -66.10275 | 33284 ft | 515 kts | 60° |
| 2026-04-21 21:11 | 43.95435 | -66.01536 | 33286 ft | 515 kts | 60° |
| 2026-04-21 21:12 | 43.98830 | -65.92784 | 33291 ft | 515 kts | 60° |
| 2026-04-21 21:12 | 44.02221 | -65.84014 | 33293 ft | 515 kts | 60° |
| 2026-04-21 21:13 | 44.05603 | -65.75239 | 33289 ft | 515 kts | 60° |
| 2026-04-21 21:13 | 44.08979 | -65.66452 | 33290 ft | 515 kts | 60° |
| 2026-04-21 21:14 | 44.12347 | -65.57659 | 33290 ft | 515 kts | 60° |
| 2026-04-21 21:14 | 44.15712 | -65.48848 | 33287 ft | 516 kts | 61° |
| 2026-04-21 21:15 | 44.19075 | -65.40011 | 33289 ft | 517 kts | 61° |
| 2026-04-21 21:15 | 44.22433 | -65.31161 | 33296 ft | 517 kts | 62° |
| 2026-04-21 21:16 | 44.25787 | -65.22296 | 33287 ft | 517 kts | 62° |
| 2026-04-21 21:16 | 44.29133 | -65.13418 | 33289 ft | 517 kts | 62° |
| 2026-04-21 21:17 | 44.32472 | -65.04532 | 33290 ft | 517 kts | 62° |
| 2026-04-21 21:17 | 44.35782 | -64.95697 | 33296 ft | 517 kts | 63° |
| 2026-04-21 21:18 | 44.39110 | -64.86786 | 33291 ft | 518 kts | 63° |
| 2026-04-21 21:18 | 44.42439 | -64.77838 | 33297 ft | 519 kts | 64° |
| 2026-04-21 21:19 | 44.45763 | -64.68881 | 33292 ft | 519 kts | 64° |
| 2026-04-21 21:19 | 44.49084 | -64.59903 | 33284 ft | 519 kts | 64° |
| 2026-04-21 21:20 | 44.52398 | -64.50913 | 33281 ft | 520 kts | 64° |
| 2026-04-21 21:20 | 44.55148 | -64.43429 | 33278 ft | 520 kts | 64° |
| 2026-04-21 21:21 | 44.58452 | -64.34412 | 33282 ft | 520 kts | 64° |
| 2026-04-21 21:21 | 44.61751 | -64.25380 | 33276 ft | 520 kts | 66° |
| 2026-04-21 21:22 | 44.65050 | -64.16314 | 33287 ft | 522 kts | 66° |
| 2026-04-21 21:22 | 44.68351 | -64.07213 | 33287 ft | 523 kts | 66° |
| 2026-04-21 21:23 | 44.71645 | -63.98104 | 33290 ft | 523 kts | 66° |
| 2026-04-21 21:23 | 44.74933 | -63.88982 | 33293 ft | 523 kts | 66° |
| 2026-04-21 21:24 | 44.78219 | -63.79833 | 33292 ft | 524 kts | 66° |
| 2026-04-21 21:24 | 44.81479 | -63.70725 | 33265 ft | 524 kts | 67° |
| 2026-04-21 21:25 | 44.84755 | -63.61545 | 33230 ft | 524 kts | 67° |
| 2026-04-21 21:25 | 44.88031 | -63.52333 | 33257 ft | 527 kts | 68° |
| 2026-04-21 21:26 | 44.91313 | -63.43069 | 33357 ft | 527 kts | 68° |
| 2026-04-21 21:26 | 44.92945 | -63.38453 | 33729 ft | 523 kts | 68° |
| 2026-04-21 21:26 | 44.94537 | -63.33856 | 34055 ft | 520 kts | 69° |
| 2026-04-21 21:27 | 44.96094 | -63.29254 | 34262 ft | 520 kts | 69° |
| 2026-04-21 21:27 | 44.97641 | -63.24635 | 34446 ft | 520 kts | 69° |
| 2026-04-21 21:27 | 44.99181 | -63.20023 | 34552 ft | 521 kts | 69° |
| 2026-04-21 21:27 | 45.00730 | -63.15389 | 34662 ft | 522 kts | 69° |
| 2026-04-21 21:28 | 45.02283 | -63.10748 | 34809 ft | 522 kts | 69° |
| 2026-04-21 21:28 | 45.03835 | -63.06115 | 34972 ft | 521 kts | 69° |
| 2026-04-21 21:28 | 45.06937 | -62.96856 | 35207 ft | 521 kts | 69° |
| 2026-04-21 21:29 | 45.08506 | -62.92226 | 35289 ft | 524 kts | 68° |
| 2026-04-21 21:29 | 45.12118 | -62.83155 | 35294 ft | 533 kts | 64° |
| 2026-04-21 21:30 | 45.15958 | -62.74108 | 35305 ft | 537 kts | 64° |
| 2026-04-21 21:30 | 45.19717 | -62.65063 | 35311 ft | 536 kts | 65° |
| 2026-04-21 21:31 | 45.23434 | -62.55912 | 35310 ft | 535 kts | 65° |
| 2026-04-21 21:31 | 45.27119 | -62.46750 | 35311 ft | 536 kts | 66° |
| 2026-04-21 21:32 | 45.30816 | -62.37523 | 35320 ft | 537 kts | 66° |
| 2026-04-21 21:32 | 45.34503 | -62.28302 | 35325 ft | 537 kts | 66° |
| 2026-04-21 21:33 | 45.38187 | -62.19066 | 35318 ft | 537 kts | 66° |
| 2026-04-21 21:33 | 45.41865 | -62.09808 | 35328 ft | 538 kts | 66° |
| 2026-04-21 21:34 | 45.45540 | -62.00533 | 35330 ft | 538 kts | 66° |
| 2026-04-21 21:34 | 45.49066 | -61.91163 | 35328 ft | 536 kts | 69° |
| 2026-04-21 21:35 | 45.52460 | -61.81717 | 35327 ft | 535 kts | 69° |
| 2026-04-21 21:35 | 45.55834 | -61.72340 | 35319 ft | 535 kts | 69° |
| 2026-04-21 21:36 | 45.59245 | -61.62908 | 35306 ft | 535 kts | 69° |
| 2026-04-21 21:36 | 45.62661 | -61.53470 | 35298 ft | 535 kts | 69° |
| 2026-04-21 21:37 | 45.66072 | -61.44013 | 35280 ft | 537 kts | 71° |
| 2026-04-21 21:37 | 45.69496 | -61.34473 | 35290 ft | 541 kts | 71° |
| 2026-04-21 21:38 | 45.72923 | -61.24904 | 35319 ft | 540 kts | 71° |
| 2026-04-21 21:38 | 45.76338 | -61.15339 | 35298 ft | 539 kts | 71° |
| 2026-04-21 21:39 | 45.79747 | -61.05744 | 35319 ft | 540 kts | 71° |
| 2026-04-21 21:39 | 45.83148 | -60.96138 | 35302 ft | 541 kts | 71° |
| 2026-04-21 21:40 | 45.86521 | -60.86581 | 35309 ft | 540 kts | 71° |
| 2026-04-21 21:40 | 45.89907 | -60.76951 | 35302 ft | 541 kts | 71° |
| 2026-04-21 21:41 | 45.93293 | -60.67279 | 35304 ft | 542 kts | 72° |
| 2026-04-21 21:41 | 45.96675 | -60.57594 | 35298 ft | 542 kts | 72° |
| 2026-04-21 21:42 | 46.00047 | -60.47898 | 35286 ft | 542 kts | 72° |
| 2026-04-21 21:42 | 46.03414 | -60.38182 | 35302 ft | 543 kts | 72° |
| 2026-04-21 21:43 | 46.06781 | -60.28426 | 35305 ft | 544 kts | 72° |
| 2026-04-21 21:43 | 46.10138 | -60.18666 | 35303 ft | 544 kts | 72° |
| 2026-04-21 21:44 | 46.13489 | -60.08892 | 35289 ft | 544 kts | 72° |
| 2026-04-21 21:44 | 46.16830 | -59.99109 | 35272 ft | 544 kts | 74° |
| 2026-04-21 21:45 | 46.20163 | -59.89309 | 35310 ft | 544 kts | 74° |
| 2026-04-21 21:45 | 46.23490 | -59.79490 | 35314 ft | 544 kts | 75° |
| 2026-04-21 21:46 | 46.26809 | -59.69660 | 35314 ft | 544 kts | 75° |
| 2026-04-21 21:46 | 46.30090 | -59.59911 | 35320 ft | 542 kts | 75° |
| 2026-04-21 21:47 | 46.33377 | -59.50100 | 35316 ft | 542 kts | 76° |
| 2026-04-21 21:47 | 46.36656 | -59.40275 | 35317 ft | 542 kts | 76° |
| 2026-04-21 21:48 | 46.39927 | -59.30439 | 35315 ft | 543 kts | 76° |
| 2026-04-21 21:48 | 46.43197 | -59.20572 | 35301 ft | 544 kts | 75° |
| 2026-04-21 21:49 | 46.46468 | -59.10657 | 35312 ft | 546 kts | 75° |
| 2026-04-21 21:49 | 46.49739 | -59.00711 | 35311 ft | 546 kts | 75° |
| 2026-04-21 21:50 | 46.53003 | -58.90753 | 35311 ft | 546 kts | 75° |
| 2026-04-21 21:50 | 46.56255 | -58.80787 | 35312 ft | 546 kts | 75° |
| 2026-04-21 21:51 | 46.59499 | -58.70809 | 35305 ft | 546 kts | 75° |
| 2026-04-21 21:51 | 46.62733 | -58.60819 | 35301 ft | 546 kts | 75° |
| 2026-04-21 21:52 | 46.65956 | -58.50824 | 35293 ft | 546 kts | 75° |
| 2026-04-21 21:52 | 46.69172 | -58.40814 | 35295 ft | 546 kts | 75° |
| 2026-04-21 21:53 | 46.72380 | -58.30785 | 35280 ft | 546 kts | 75° |
| 2026-04-21 21:53 | 46.75582 | -58.20739 | 35273 ft | 546 kts | 74° |
| 2026-04-21 21:54 | 46.78751 | -58.10764 | 35271 ft | 545 kts | 75° |
| 2026-04-21 21:54 | 46.81929 | -58.00713 | 35270 ft | 545 kts | 75° |
| 2026-04-21 21:55 | 46.85099 | -57.90652 | 35261 ft | 545 kts | 75° |
| 2026-04-21 21:55 | 46.88256 | -57.80588 | 35251 ft | 545 kts | 75° |
| 2026-04-21 21:56 | 46.91403 | -57.70524 | 35248 ft | 543 kts | 75° |
| 2026-04-21 21:56 | 46.94530 | -57.60474 | 35247 ft | 543 kts | 75° |
| 2026-04-21 21:57 | 46.97649 | -57.50413 | 35241 ft | 542 kts | 75° |
| 2026-04-21 21:57 | 47.00755 | -57.40356 | 35232 ft | 541 kts | 75° |
| 2026-04-21 21:58 | 47.03846 | -57.30307 | 35235 ft | 541 kts | 75° |
| 2026-04-21 21:58 | 47.06924 | -57.20258 | 35234 ft | 540 kts | 75° |
| 2026-04-21 21:59 | 47.09993 | -57.10198 | 35226 ft | 540 kts | 75° |
| 2026-04-21 21:59 | 47.13036 | -57.00183 | 35214 ft | 540 kts | 75° |
| 2026-04-21 22:00 | 47.16088 | -56.90097 | 35215 ft | 541 kts | 75° |
| 2026-04-21 22:00 | 47.19135 | -56.79989 | 35189 ft | 543 kts | 75° |
| 2026-04-21 22:01 | 47.22194 | -56.69781 | 35187 ft | 547 kts | 75° |
| 2026-04-21 22:01 | 47.25259 | -56.59534 | 35173 ft | 548 kts | 75° |
| 2026-04-21 22:02 | 47.28322 | -56.49259 | 35148 ft | 548 kts | 75° |
| 2026-04-21 22:02 | 47.31372 | -56.38980 | 35148 ft | 548 kts | 75° |
| 2026-04-21 22:03 | 47.34413 | -56.28682 | 35119 ft | 548 kts | 75° |
| 2026-04-21 22:03 | 47.37446 | -56.18364 | 35113 ft | 549 kts | 75° |
| 2026-04-21 22:04 | 47.40475 | -56.08016 | 35114 ft | 549 kts | 75° |
| 2026-04-21 22:04 | 47.43493 | -55.97662 | 35098 ft | 550 kts | 75° |
| 2026-04-21 22:05 | 47.46506 | -55.87282 | 35073 ft | 549 kts | 74° |
| 2026-04-21 22:05 | 47.49502 | -55.76929 | 35090 ft | 547 kts | 74° |
| 2026-04-21 22:06 | 47.52481 | -55.66581 | 35094 ft | 546 kts | 74° |
| 2026-04-21 22:06 | 47.55448 | -55.56230 | 35100 ft | 546 kts | 75° |
| 2026-04-21 22:07 | 47.58403 | -55.45873 | 35107 ft | 546 kts | 74° |
| 2026-04-21 22:07 | 47.61351 | -55.35500 | 35116 ft | 546 kts | 74° |
| 2026-04-21 22:08 | 47.64267 | -55.25193 | 35124 ft | 546 kts | 75° |
| 2026-04-21 22:08 | 47.67189 | -55.14830 | 35130 ft | 541 kts | 74° |
| 2026-04-21 22:09 | 47.70065 | -55.04598 | 35143 ft | 534 kts | 74° |
| 2026-04-21 22:09 | 47.72904 | -54.94424 | 35140 ft | 533 kts | 74° |
| 2026-04-21 22:10 | 47.75735 | -54.84236 | 35163 ft | 533 kts | 74° |
| 2026-04-21 22:10 | 47.78558 | -54.74038 | 35150 ft | 533 kts | 74° |
| 2026-04-21 22:11 | 47.81373 | -54.63832 | 35148 ft | 533 kts | 74° |
| 2026-04-21 22:11 | 47.84178 | -54.53618 | 35148 ft | 533 kts | 74° |
| 2026-04-21 22:12 | 47.86975 | -54.43389 | 35144 ft | 533 kts | 74° |
| 2026-04-21 22:12 | 47.89761 | -54.33159 | 35137 ft | 533 kts | 74° |
| 2026-04-21 22:13 | 47.92537 | -54.22916 | 35145 ft | 534 kts | 74° |
| 2026-04-21 22:13 | 47.95291 | -54.12708 | 35145 ft | 534 kts | 74° |
| 2026-04-21 22:14 | 47.98058 | -54.02415 | 35143 ft | 534 kts | 74° |
| 2026-04-21 22:14 | 48.00815 | -53.92113 | 35144 ft | 534 kts | 74° |
| 2026-04-21 22:15 | 48.03561 | -53.81803 | 35138 ft | 534 kts | 74° |
| 2026-04-21 22:15 | 48.06294 | -53.71497 | 35146 ft | 533 kts | 74° |
| 2026-04-21 22:16 | 48.09015 | -53.61190 | 35146 ft | 533 kts | 74° |
| 2026-04-21 22:16 | 48.11276 | -53.52594 | 35155 ft | 533 kts | 74° |
| 2026-04-21 22:17 | 48.13982 | -53.42250 | 35142 ft | 535 kts | 73° |
| 2026-04-21 22:17 | 48.16694 | -53.31841 | 35148 ft | 536 kts | 73° |
| 2026-04-21 22:18 | 48.19398 | -53.21429 | 35151 ft | 536 kts | 73° |
| 2026-04-21 22:18 | 48.22089 | -53.11013 | 35154 ft | 536 kts | 73° |
| 2026-04-21 22:19 | 48.24771 | -53.00584 | 35144 ft | 536 kts | 73° |
| 2026-04-21 22:19 | 48.27440 | -52.90161 | 35162 ft | 535 kts | 73° |
| 2026-04-21 22:20 | 48.30096 | -52.79737 | 35155 ft | 534 kts | 73° |
| 2026-04-21 22:20 | 48.32741 | -52.69311 | 35152 ft | 534 kts | 73° |
| 2026-04-21 22:21 | 48.35376 | -52.58873 | 35138 ft | 534 kts | 73° |
| 2026-04-21 22:21 | 48.37983 | -52.48503 | 35154 ft | 533 kts | 73° |
| 2026-04-21 22:22 | 48.40591 | -52.38078 | 35151 ft | 533 kts | 73° |
| 2026-04-21 22:22 | 48.43191 | -52.27634 | 35151 ft | 533 kts | 73° |
| 2026-04-21 22:23 | 48.45780 | -52.17185 | 35130 ft | 532 kts | 73° |
| 2026-04-21 22:23 | 48.48355 | -52.06750 | 35135 ft | 530 kts | 73° |
| 2026-04-21 22:24 | 48.50924 | -51.96331 | 35135 ft | 530 kts | 73° |
| 2026-04-21 22:24 | 48.53609 | -51.85968 | 35132 ft | 531 kts | 72° |
| 2026-04-21 22:25 | 48.56330 | -51.75611 | 35115 ft | 531 kts | 72° |
| 2026-04-21 22:25 | 48.59021 | -51.65248 | 35121 ft | 531 kts | 72° |
| 2026-04-21 22:26 | 48.61675 | -51.54920 | 35121 ft | 532 kts | 72° |
| 2026-04-21 22:26 | 48.64342 | -51.44482 | 35118 ft | 532 kts | 72° |
| 2026-04-21 22:27 | 48.66997 | -51.34038 | 35114 ft | 532 kts | 72° |
| 2026-04-21 22:27 | 48.69638 | -51.23606 | 35107 ft | 530 kts | 72° |
| 2026-04-21 22:28 | 48.72265 | -51.13186 | 35104 ft | 529 kts | 72° |
| 2026-04-21 22:28 | 48.74880 | -51.02761 | 35102 ft | 529 kts | 72° |
| 2026-04-21 22:29 | 48.77486 | -50.92323 | 35096 ft | 529 kts | 72° |
| 2026-04-21 22:29 | 48.80078 | -50.81891 | 35087 ft | 527 kts | 72° |
| 2026-04-21 22:30 | 48.82651 | -50.71493 | 35091 ft | 525 kts | 72° |
| 2026-04-21 22:30 | 48.85205 | -50.61120 | 35091 ft | 524 kts | 72° |
| 2026-04-21 22:31 | 48.87750 | -50.50735 | 35091 ft | 524 kts | 72° |
| 2026-04-21 22:31 | 48.90283 | -50.40347 | 35087 ft | 525 kts | 72° |
| 2026-04-21 22:32 | 48.92809 | -50.29944 | 35080 ft | 524 kts | 72° |
| 2026-04-21 22:32 | 48.95309 | -50.19598 | 35084 ft | 524 kts | 72° |
| 2026-04-21 22:33 | 48.97816 | -50.09176 | 35085 ft | 524 kts | 72° |
| 2026-04-21 22:33 | 49.00311 | -49.98753 | 35075 ft | 522 kts | 72° |
| 2026-04-21 22:34 | 49.02876 | -49.88428 | 35082 ft | 520 kts | 71° |
| 2026-04-21 22:34 | 49.05487 | -49.78147 | 35074 ft | 520 kts | 70° |
| 2026-04-21 22:35 | 49.08080 | -49.67852 | 35080 ft | 520 kts | 71° |
| 2026-04-21 22:35 | 49.10647 | -49.57548 | 35080 ft | 520 kts | 71° |
| 2026-04-21 22:36 | 49.14475 | -49.42063 | 35083 ft | 520 kts | 71° |
| 2026-04-21 22:36 | 49.17015 | -49.31724 | 35080 ft | 520 kts | 71° |
| 2026-04-21 22:37 | 49.19547 | -49.21377 | 35083 ft | 520 kts | 71° |
| 2026-04-21 22:37 | 49.22053 | -49.11085 | 35085 ft | 520 kts | 71° |
| 2026-04-21 22:38 | 49.24568 | -49.00709 | 35085 ft | 520 kts | 71° |
| 2026-04-21 22:38 | 49.27073 | -48.90324 | 35084 ft | 520 kts | 71° |
| 2026-04-21 22:39 | 49.29569 | -48.79929 | 35088 ft | 520 kts | 71° |
| 2026-04-21 22:39 | 49.32053 | -48.69530 | 35084 ft | 519 kts | 70° |
| 2026-04-21 22:40 | 49.34523 | -48.59144 | 35094 ft | 518 kts | 71° |
| 2026-04-21 22:40 | 49.36982 | -48.48757 | 35096 ft | 518 kts | 71° |
| 2026-04-21 22:41 | 49.39430 | -48.38366 | 35094 ft | 518 kts | 71° |
| 2026-04-21 22:41 | 49.41869 | -48.27958 | 35105 ft | 518 kts | 70° |
| 2026-04-21 22:42 | 49.44293 | -48.17569 | 35099 ft | 516 kts | 71° |
| 2026-04-21 22:42 | 49.46705 | -48.07184 | 35107 ft | 516 kts | 71° |
| 2026-04-21 22:43 | 49.49104 | -47.96800 | 35107 ft | 516 kts | 71° |
| 2026-04-21 22:43 | 49.51495 | -47.86399 | 35120 ft | 515 kts | 70° |
| 2026-04-21 22:44 | 49.53859 | -47.76068 | 35112 ft | 515 kts | 70° |
| 2026-04-21 22:44 | 49.56226 | -47.65670 | 35127 ft | 514 kts | 70° |
| 2026-04-21 22:45 | 49.58580 | -47.55284 | 35129 ft | 514 kts | 70° |
| 2026-04-21 22:45 | 49.60924 | -47.44887 | 35129 ft | 514 kts | 70° |
| 2026-04-21 22:46 | 49.63258 | -47.34481 | 35143 ft | 512 kts | 70° |
| 2026-04-21 22:46 | 49.65577 | -47.24096 | 35150 ft | 512 kts | 70° |
| 2026-04-21 22:47 | 49.67887 | -47.13696 | 35149 ft | 512 kts | 70° |
| 2026-04-21 22:47 | 49.70186 | -47.03298 | 35156 ft | 512 kts | 70° |
| 2026-04-21 22:48 | 49.72474 | -46.92890 | 35157 ft | 511 kts | 70° |
| 2026-04-21 22:48 | 49.74749 | -46.82494 | 35167 ft | 510 kts | 70° |
| 2026-04-21 22:49 | 49.77013 | -46.72099 | 35178 ft | 510 kts | 70° |
| 2026-04-21 22:49 | 49.79248 | -46.61780 | 35179 ft | 508 kts | 70° |
| 2026-04-21 22:50 | 49.81485 | -46.51401 | 35182 ft | 507 kts | 70° |
| 2026-04-21 22:50 | 49.83703 | -46.41060 | 35187 ft | 506 kts | 70° |
| 2026-04-21 22:51 | 49.85910 | -46.30716 | 35194 ft | 505 kts | 70° |
| 2026-04-21 22:51 | 49.88108 | -46.20367 | 35195 ft | 505 kts | 70° |
| 2026-04-21 22:52 | 49.90295 | -46.10010 | 35200 ft | 505 kts | 70° |
| 2026-04-21 22:52 | 49.92475 | -45.99638 | 35211 ft | 505 kts | 70° |
| 2026-04-21 22:53 | 49.94643 | -45.89263 | 35208 ft | 505 kts | 70° |
| 2026-04-21 22:53 | 49.96804 | -45.78875 | 35207 ft | 505 kts | 70° |
| 2026-04-21 22:54 | 49.98953 | -45.68488 | 35207 ft | 505 kts | 70° |
| 2026-04-21 22:54 | 50.01091 | -45.58092 | 35219 ft | 503 kts | 70° |
| 2026-04-21 22:55 | 50.03211 | -45.47736 | 35214 ft | 502 kts | 70° |
| 2026-04-21 22:55 | 50.05306 | -45.37451 | 35224 ft | 502 kts | 70° |
| 2026-04-21 22:56 | 50.07406 | -45.27093 | 35238 ft | 502 kts | 70° |
| 2026-04-21 22:56 | 50.09496 | -45.16717 | 35242 ft | 502 kts | 70° |
| 2026-04-21 22:57 | 50.11571 | -45.06362 | 35242 ft | 500 kts | 70° |
| 2026-04-21 22:57 | 50.13633 | -44.96024 | 35242 ft | 500 kts | 70° |
| 2026-04-21 22:58 | 50.15686 | -44.85675 | 35253 ft | 500 kts | 70° |
| 2026-04-21 22:58 | 50.17730 | -44.75316 | 35250 ft | 500 kts | 70° |
| 2026-04-21 22:59 | 50.19762 | -44.64958 | 35257 ft | 498 kts | 70° |
| 2026-04-21 22:59 | 50.21774 | -44.54647 | 35276 ft | 496 kts | 69° |
| 2026-04-21 23:00 | 50.23770 | -44.44365 | 35270 ft | 493 kts | 69° |
| 2026-04-21 23:00 | 50.25749 | -44.34120 | 35275 ft | 492 kts | 69° |
| 2026-04-21 23:01 | 50.27717 | -44.23873 | 35287 ft | 492 kts | 69° |
| 2026-04-21 23:01 | 50.29668 | -44.13656 | 35282 ft | 489 kts | 69° |
| 2026-04-21 23:02 | 50.31593 | -44.03525 | 35282 ft | 489 kts | 69° |
| 2026-04-21 23:02 | 50.33521 | -43.93324 | 35287 ft | 489 kts | 69° |
| 2026-04-21 23:03 | 50.35442 | -43.83105 | 35289 ft | 489 kts | 69° |
| 2026-04-21 23:03 | 50.37352 | -43.72888 | 35293 ft | 488 kts | 69° |
| 2026-04-21 23:04 | 50.39246 | -43.62696 | 35293 ft | 487 kts | 69° |
| 2026-04-21 23:04 | 50.41131 | -43.52500 | 35297 ft | 487 kts | 69° |
| 2026-04-21 23:05 | 50.43006 | -43.42301 | 35312 ft | 487 kts | 69° |
| 2026-04-21 23:05 | 50.44867 | -43.32116 | 35315 ft | 485 kts | 69° |
| 2026-04-21 23:06 | 50.46709 | -43.21977 | 35310 ft | 482 kts | 69° |
| 2026-04-21 23:06 | 50.48536 | -43.11874 | 35309 ft | 481 kts | 69° |
| 2026-04-21 23:07 | 50.50356 | -43.01759 | 35309 ft | 481 kts | 69° |
| 2026-04-21 23:07 | 50.52154 | -42.91707 | 35309 ft | 481 kts | 69° |
| 2026-04-21 23:08 | 50.53954 | -42.81582 | 35319 ft | 481 kts | 69° |
| 2026-04-21 23:08 | 50.55737 | -42.71494 | 35315 ft | 479 kts | 69° |
| 2026-04-21 23:09 | 50.57515 | -42.61378 | 35322 ft | 479 kts | 69° |
| 2026-04-21 23:09 | 50.59284 | -42.51264 | 35322 ft | 479 kts | 69° |
| 2026-04-21 23:10 | 50.61043 | -42.41145 | 35324 ft | 479 kts | 69° |
| 2026-04-21 23:10 | 50.62791 | -42.31025 | 35321 ft | 478 kts | 69° |
| 2026-04-21 23:11 | 50.64527 | -42.20918 | 35322 ft | 478 kts | 69° |
| 2026-04-21 23:11 | 50.66254 | -42.10810 | 35325 ft | 478 kts | 69° |
| 2026-04-21 23:12 | 50.67683 | -42.02406 | 35330 ft | 478 kts | 69° |
| 2026-04-21 23:12 | 50.69394 | -41.92283 | 35330 ft | 478 kts | 69° |
| 2026-04-21 23:13 | 50.71096 | -41.82158 | 35333 ft | 478 kts | 69° |
| 2026-04-21 23:13 | 50.72789 | -41.72021 | 35333 ft | 478 kts | 69° |
| 2026-04-21 23:14 | 50.74474 | -41.61872 | 35333 ft | 478 kts | 69° |
| 2026-04-21 23:14 | 50.76150 | -41.51722 | 35333 ft | 478 kts | 69° |
| 2026-04-21 23:15 | 50.77817 | -41.41561 | 35341 ft | 478 kts | 69° |
| 2026-04-21 23:15 | 50.79475 | -41.31392 | 35346 ft | 478 kts | 69° |
| 2026-04-21 23:16 | 50.81125 | -41.21215 | 35347 ft | 478 kts | 69° |
| 2026-04-21 23:16 | 50.82765 | -41.11035 | 35346 ft | 478 kts | 69° |
| 2026-04-21 23:17 | 50.84396 | -41.00850 | 35344 ft | 478 kts | 70° |
| 2026-04-21 23:17 | 50.86019 | -40.90656 | 35347 ft | 477 kts | 69° |
| 2026-04-21 23:18 | 50.87618 | -40.80542 | 35347 ft | 476 kts | 69° |
| 2026-04-21 23:18 | 50.89229 | -40.70296 | 35346 ft | 477 kts | 69° |
| 2026-04-21 23:19 | 50.90822 | -40.60107 | 35344 ft | 477 kts | 70° |
| 2026-04-21 23:19 | 50.92406 | -40.49905 | 35344 ft | 477 kts | 70° |
| 2026-04-21 23:20 | 50.93966 | -40.39784 | 35344 ft | 476 kts | 69° |
| 2026-04-21 23:20 | 50.95527 | -40.29598 | 35344 ft | 474 kts | 69° |
| 2026-04-21 23:21 | 50.97076 | -40.19434 | 35343 ft | 474 kts | 69° |
| 2026-04-21 23:21 | 50.98617 | -40.09256 | 35344 ft | 474 kts | 70° |
| 2026-04-21 23:22 | 50.99948 | -39.98981 | 35343 ft | 480 kts | 77° |
| 2026-04-21 23:22 | 51.00531 | -39.88408 | 35347 ft | 480 kts | 79° |
| 2026-04-21 23:23 | 51.00965 | -39.77829 | 35340 ft | 480 kts | 79° |
| 2026-04-21 23:23 | 51.01372 | -39.67254 | 35342 ft | 480 kts | 79° |
| 2026-04-21 23:24 | 51.01781 | -39.56671 | 35339 ft | 480 kts | 79° |
| 2026-04-21 23:24 | 51.02188 | -39.46090 | 35336 ft | 480 kts | 79° |
| 2026-04-21 23:25 | 51.02588 | -39.35506 | 35348 ft | 480 kts | 81° |
| 2026-04-21 23:25 | 51.02977 | -39.24939 | 35339 ft | 479 kts | 81° |
| 2026-04-21 23:26 | 51.03356 | -39.14377 | 35341 ft | 478 kts | 82° |
| 2026-04-21 23:26 | 51.03725 | -39.03833 | 35334 ft | 478 kts | 82° |
| 2026-04-21 23:27 | 51.04084 | -38.93293 | 35335 ft | 478 kts | 82° |
| 2026-04-21 23:27 | 51.04434 | -38.82746 | 35331 ft | 478 kts | 82° |
| 2026-04-21 23:28 | 51.04771 | -38.72285 | 35336 ft | 476 kts | 82° |
| 2026-04-21 23:28 | 51.05099 | -38.61804 | 35334 ft | 474 kts | 82° |
| 2026-04-21 23:29 | 51.05418 | -38.51332 | 35331 ft | 474 kts | 82° |
| 2026-04-21 23:29 | 51.05728 | -38.40867 | 35326 ft | 475 kts | 82° |
| 2026-04-21 23:30 | 51.06028 | -38.30396 | 35335 ft | 473 kts | 82° |
| 2026-04-21 23:30 | 51.06317 | -38.19963 | 35332 ft | 472 kts | 82° |
| 2026-04-21 23:31 | 51.06597 | -38.09554 | 35326 ft | 471 kts | 82° |
| 2026-04-21 23:31 | 51.06868 | -37.99149 | 35327 ft | 471 kts | 83° |
| 2026-04-21 23:32 | 51.07130 | -37.88741 | 35328 ft | 471 kts | 83° |
| 2026-04-21 23:32 | 51.07382 | -37.78333 | 35325 ft | 471 kts | 83° |
| 2026-04-21 23:33 | 51.07624 | -37.67927 | 35325 ft | 471 kts | 83° |
| 2026-04-21 23:33 | 51.07858 | -37.57511 | 35328 ft | 472 kts | 83° |
| 2026-04-21 23:34 | 51.08081 | -37.47147 | 35322 ft | 472 kts | 83° |
| 2026-04-21 23:34 | 51.08296 | -37.36716 | 35322 ft | 472 kts | 83° |
| 2026-04-21 23:35 | 51.08503 | -37.26273 | 35322 ft | 472 kts | 83° |
| 2026-04-21 23:35 | 51.08699 | -37.15838 | 35320 ft | 472 kts | 83° |
| 2026-04-21 23:36 | 51.08887 | -37.05396 | 35330 ft | 472 kts | 83° |
| 2026-04-21 23:36 | 51.09064 | -36.94980 | 35317 ft | 471 kts | 83° |
| 2026-04-21 23:37 | 51.09233 | -36.84570 | 35310 ft | 471 kts | 83° |
| 2026-04-21 23:37 | 51.09392 | -36.74160 | 35339 ft | 471 kts | 83° |
| 2026-04-21 23:38 | 51.09542 | -36.63753 | 35314 ft | 471 kts | 83° |
| 2026-04-21 23:38 | 51.09683 | -36.53343 | 35308 ft | 471 kts | 83° |
| 2026-04-21 23:39 | 51.09815 | -36.42939 | 35308 ft | 470 kts | 83° |
| 2026-04-21 23:39 | 51.09935 | -36.32626 | 35309 ft | 469 kts | 83° |
| 2026-04-21 23:40 | 51.10048 | -36.22254 | 35297 ft | 469 kts | 83° |
| 2026-04-21 23:40 | 51.10152 | -36.11879 | 35299 ft | 469 kts | 83° |
| 2026-04-21 23:41 | 51.10247 | -36.01506 | 35299 ft | 469 kts | 84° |
| 2026-04-21 23:41 | 51.10332 | -35.91132 | 35317 ft | 469 kts | 83° |
| 2026-04-21 23:42 | 51.10408 | -35.80752 | 35295 ft | 469 kts | 83° |
| 2026-04-21 23:42 | 51.10475 | -35.70370 | 35294 ft | 469 kts | 84° |
| 2026-04-21 23:43 | 51.10533 | -35.59986 | 35292 ft | 469 kts | 84° |
| 2026-04-21 23:43 | 51.10581 | -35.49603 | 35286 ft | 469 kts | 84° |
| 2026-04-21 23:44 | 51.10620 | -35.39220 | 35283 ft | 469 kts | 84° |
| 2026-04-21 23:44 | 51.10650 | -35.28838 | 35284 ft | 468 kts | 84° |
| 2026-04-21 23:45 | 51.10677 | -35.13403 | 35282 ft | 467 kts | 84° |
| 2026-04-21 23:46 | 51.10685 | -35.03065 | 35284 ft | 467 kts | 84° |
| 2026-04-21 23:46 | 51.10684 | -34.92712 | 35270 ft | 468 kts | 84° |
| 2026-04-21 23:47 | 51.10673 | -34.82351 | 35276 ft | 468 kts | 84° |
| 2026-04-21 23:47 | 51.10652 | -34.71989 | 35277 ft | 468 kts | 84° |
| 2026-04-21 23:48 | 51.10621 | -34.61665 | 35266 ft | 466 kts | 84° |
| 2026-04-21 23:48 | 51.10584 | -34.51342 | 35263 ft | 466 kts | 84° |
| 2026-04-21 23:49 | 51.10537 | -34.41023 | 35265 ft | 466 kts | 84° |
| 2026-04-21 23:49 | 51.10481 | -34.30708 | 35260 ft | 466 kts | 84° |
| 2026-04-21 23:50 | 51.10415 | -34.20383 | 35262 ft | 467 kts | 84° |
| 2026-04-21 23:50 | 51.10341 | -34.10032 | 35255 ft | 467 kts | 84° |
| 2026-04-21 23:51 | 51.10256 | -33.99705 | 35253 ft | 467 kts | 84° |
| 2026-04-21 23:51 | 51.10163 | -33.89384 | 35253 ft | 467 kts | 84° |
| 2026-04-21 23:52 | 51.10061 | -33.79061 | 35254 ft | 467 kts | 84° |
| 2026-04-21 23:52 | 51.09950 | -33.68737 | 35255 ft | 467 kts | 84° |
| 2026-04-21 23:53 | 51.09830 | -33.58408 | 35262 ft | 467 kts | 84° |
| 2026-04-21 23:53 | 51.09701 | -33.48185 | 35245 ft | 465 kts | 84° |
| 2026-04-21 23:54 | 51.09563 | -33.37904 | 35246 ft | 465 kts | 84° |
| 2026-04-21 23:54 | 51.09417 | -33.27627 | 35232 ft | 465 kts | 84° |
| 2026-04-21 23:55 | 51.09262 | -33.17352 | 35232 ft | 465 kts | 85° |
| 2026-04-21 23:55 | 51.09097 | -33.07072 | 35237 ft | 465 kts | 85° |
| 2026-04-21 23:56 | 51.08923 | -32.96804 | 35232 ft | 463 kts | 85° |
| 2026-04-21 23:56 | 51.08740 | -32.86572 | 35221 ft | 462 kts | 85° |
| 2026-04-21 23:57 | 51.08550 | -32.76360 | 35224 ft | 462 kts | 85° |
| 2026-04-21 23:57 | 51.08351 | -32.66142 | 35223 ft | 462 kts | 85° |
| 2026-04-21 23:58 | 51.08145 | -32.55985 | 35217 ft | 464 kts | 85° |
| 2026-04-21 23:58 | 51.07927 | -32.45708 | 35216 ft | 465 kts | 85° |
| 2026-04-21 23:59 | 51.07699 | -32.35424 | 35214 ft | 465 kts | 86° |
| 2026-04-21 23:59 | 51.07461 | -32.25155 | 35202 ft | 465 kts | 86° |
| 2026-04-22 00:00 | 51.07215 | -32.14889 | 35202 ft | 465 kts | 86° |
| 2026-04-22 00:00 | 51.06962 | -32.04639 | 35206 ft | 465 kts | 86° |
| 2026-04-22 00:01 | 51.06698 | -31.94363 | 35192 ft | 465 kts | 86° |
| 2026-04-22 00:01 | 51.06426 | -31.84102 | 35194 ft | 465 kts | 87° |
| 2026-04-22 00:02 | 51.06148 | -31.73909 | 35192 ft | 466 kts | 88° |
| 2026-04-22 00:02 | 51.05857 | -31.63586 | 35180 ft | 468 kts | 88° |
| 2026-04-22 00:03 | 51.05554 | -31.53242 | 35181 ft | 469 kts | 88° |
| 2026-04-22 00:03 | 51.05242 | -31.42892 | 35181 ft | 469 kts | 88° |
| 2026-04-22 00:04 | 51.04921 | -31.32553 | 35180 ft | 469 kts | 88° |
| 2026-04-22 00:04 | 51.04593 | -31.22213 | 35173 ft | 468 kts | 89° |
| 2026-04-22 00:05 | 51.04254 | -31.11886 | 35171 ft | 468 kts | 89° |
| 2026-04-22 00:05 | 51.03907 | -31.01561 | 35170 ft | 468 kts | 89° |
| 2026-04-22 00:06 | 51.03552 | -30.91231 | 35158 ft | 469 kts | 89° |
| 2026-04-22 00:06 | 51.03248 | -30.82616 | 35155 ft | 470 kts | 90° |
| 2026-04-22 00:07 | 51.02873 | -30.72241 | 35162 ft | 470 kts | 90° |
| 2026-04-22 00:07 | 51.02489 | -30.61890 | 35142 ft | 469 kts | 90° |
| 2026-04-22 00:08 | 51.02097 | -30.51562 | 35147 ft | 468 kts | 90° |
| 2026-04-22 00:08 | 51.01697 | -30.41237 | 35140 ft | 468 kts | 90° |
| 2026-04-22 00:09 | 51.01288 | -30.30921 | 35130 ft | 468 kts | 90° |
| 2026-04-22 00:09 | 51.00869 | -30.20609 | 35128 ft | 468 kts | 91° |
| 2026-04-22 00:10 | 51.00442 | -30.10288 | 35133 ft | 468 kts | 91° |
| 2026-04-22 00:10 | 51.00113 | -29.99972 | 35129 ft | 466 kts | 86° |
| 2026-04-22 00:11 | 51.00420 | -29.89704 | 35116 ft | 466 kts | 84° |
| 2026-04-22 00:11 | 51.00842 | -29.79447 | 35116 ft | 466 kts | 84° |
| 2026-04-22 00:12 | 51.01275 | -29.69195 | 35115 ft | 466 kts | 84° |
| 2026-04-22 00:12 | 51.01692 | -29.58945 | 35112 ft | 465 kts | 84° |
| 2026-04-22 00:13 | 51.02090 | -29.48727 | 35105 ft | 463 kts | 85° |
| 2026-04-22 00:13 | 51.02477 | -29.38512 | 35100 ft | 463 kts | 85° |
| 2026-04-22 00:14 | 51.02856 | -29.28290 | 35094 ft | 463 kts | 85° |
| 2026-04-22 00:14 | 51.03224 | -29.18133 | 35094 ft | 463 kts | 85° |
| 2026-04-22 00:15 | 51.03584 | -29.07903 | 35087 ft | 464 kts | 85° |
| 2026-04-22 00:15 | 51.03937 | -28.97657 | 35083 ft | 466 kts | 85° |
| 2026-04-22 00:16 | 51.04280 | -28.87423 | 35087 ft | 464 kts | 86° |
| 2026-04-22 00:16 | 51.04613 | -28.77199 | 35085 ft | 464 kts | 86° |
| 2026-04-22 00:17 | 51.04939 | -28.66970 | 35078 ft | 462 kts | 86° |
| 2026-04-22 00:17 | 51.05255 | -28.56743 | 35060 ft | 462 kts | 86° |
| 2026-04-22 00:18 | 51.05562 | -28.46540 | 35064 ft | 461 kts | 86° |
| 2026-04-22 00:18 | 51.05860 | -28.36316 | 35067 ft | 464 kts | 86° |
| 2026-04-22 00:19 | 51.06150 | -28.26071 | 35067 ft | 465 kts | 86° |
| 2026-04-22 00:19 | 51.06431 | -28.15843 | 35054 ft | 465 kts | 87° |
| 2026-04-22 00:20 | 51.06702 | -28.05585 | 35050 ft | 464 kts | 87° |
| 2026-04-22 00:20 | 51.06965 | -27.95330 | 35054 ft | 465 kts | 87° |
| 2026-04-22 00:21 | 51.07218 | -27.85121 | 35049 ft | 464 kts | 88° |
| 2026-04-22 00:21 | 51.07464 | -27.74852 | 35029 ft | 464 kts | 88° |
| 2026-04-22 00:22 | 51.07700 | -27.64591 | 35037 ft | 464 kts | 88° |
| 2026-04-22 00:22 | 51.07928 | -27.54327 | 35039 ft | 465 kts | 88° |
| 2026-04-22 00:23 | 51.08146 | -27.44076 | 35035 ft | 464 kts | 88° |
| 2026-04-22 00:23 | 51.08355 | -27.33837 | 35034 ft | 464 kts | 88° |
| 2026-04-22 00:24 | 51.08553 | -27.23644 | 35013 ft | 464 kts | 88° |
| 2026-04-22 00:24 | 51.08744 | -27.13377 | 35017 ft | 463 kts | 88° |
| 2026-04-22 00:25 | 51.08927 | -27.03109 | 35011 ft | 464 kts | 88° |
| 2026-04-22 00:25 | 51.09101 | -26.92844 | 35018 ft | 465 kts | 88° |
| 2026-04-22 00:26 | 51.09265 | -26.82573 | 35006 ft | 465 kts | 88° |
| 2026-04-22 00:26 | 51.09420 | -26.72314 | 35006 ft | 465 kts | 88° |
| 2026-04-22 00:27 | 51.09566 | -26.62066 | 35003 ft | 463 kts | 88° |
| 2026-04-22 00:27 | 51.09703 | -26.51817 | 35000 ft | 462 kts | 88° |
| 2026-04-22 00:28 | 51.09832 | -26.41566 | 34984 ft | 463 kts | 88° |
| 2026-04-22 00:28 | 51.09951 | -26.31325 | 34985 ft | 463 kts | 88° |
| 2026-04-22 00:29 | 51.10061 | -26.21098 | 34983 ft | 463 kts | 89° |
| 2026-04-22 00:29 | 51.10161 | -26.10940 | 34988 ft | 464 kts | 89° |
| 2026-04-22 00:30 | 51.10254 | -26.00687 | 34983 ft | 464 kts | 89° |
| 2026-04-22 00:30 | 51.10338 | -25.90425 | 34965 ft | 461 kts | 89° |
| 2026-04-22 00:31 | 51.10412 | -25.80216 | 34962 ft | 461 kts | 89° |
| 2026-04-22 00:31 | 51.10477 | -25.69991 | 34967 ft | 462 kts | 89° |
| 2026-04-22 00:32 | 51.10533 | -25.59797 | 34961 ft | 462 kts | 89° |
| 2026-04-22 00:32 | 51.10580 | -25.49625 | 34949 ft | 460 kts | 89° |
| 2026-04-22 00:33 | 51.10619 | -25.39476 | 34946 ft | 459 kts | 89° |
| 2026-04-22 00:33 | 51.10649 | -25.29290 | 34945 ft | 460 kts | 89° |
| 2026-04-22 00:34 | 51.10670 | -25.19104 | 34946 ft | 459 kts | 89° |
| 2026-04-22 00:34 | 51.10683 | -25.08934 | 34946 ft | 461 kts | 89° |
| 2026-04-22 00:35 | 51.10686 | -24.98760 | 34931 ft | 461 kts | 90° |
| 2026-04-22 00:35 | 51.10680 | -24.88558 | 34935 ft | 462 kts | 90° |
| 2026-04-22 00:36 | 51.10666 | -24.78427 | 34929 ft | 459 kts | 90° |
| 2026-04-22 00:36 | 51.10643 | -24.68247 | 34931 ft | 459 kts | 90° |
| 2026-04-22 00:37 | 51.10611 | -24.58079 | 34923 ft | 460 kts | 90° |
| 2026-04-22 00:37 | 51.10571 | -24.47929 | 34916 ft | 460 kts | 90° |
| 2026-04-22 00:38 | 51.10521 | -24.37796 | 34920 ft | 457 kts | 90° |
| 2026-04-22 00:38 | 51.10463 | -24.27704 | 34917 ft | 455 kts | 90° |
| 2026-04-22 00:39 | 51.10396 | -24.17596 | 34915 ft | 456 kts | 90° |
| 2026-04-22 00:39 | 51.10320 | -24.07480 | 34917 ft | 458 kts | 90° |
| 2026-04-22 00:40 | 51.10236 | -23.97366 | 34919 ft | 459 kts | 91° |
| 2026-04-22 00:40 | 51.10144 | -23.87262 | 34914 ft | 457 kts | 91° |
| 2026-04-22 00:41 | 51.10042 | -23.77150 | 34919 ft | 456 kts | 91° |
| 2026-04-22 00:41 | 51.09931 | -23.67049 | 34900 ft | 455 kts | 91° |
| 2026-04-22 00:42 | 51.09813 | -23.56975 | 34906 ft | 455 kts | 91° |
| 2026-04-22 00:42 | 51.09687 | -23.46996 | 34904 ft | 455 kts | 91° |
| 2026-04-22 00:43 | 51.09551 | -23.36961 | 34912 ft | 454 kts | 91° |
| 2026-04-22 00:43 | 51.09408 | -23.26904 | 34890 ft | 453 kts | 91° |
| 2026-04-22 00:44 | 51.09255 | -23.16897 | 34885 ft | 451 kts | 92° |
| 2026-04-22 00:44 | 51.09095 | -23.06891 | 34896 ft | 454 kts | 92° |
| 2026-04-22 00:45 | 51.08925 | -22.96871 | 34894 ft | 455 kts | 92° |
| 2026-04-22 00:45 | 51.08746 | -22.86834 | 34896 ft | 454 kts | 92° |
| 2026-04-22 00:46 | 51.08560 | -22.76809 | 34878 ft | 451 kts | 92° |
| 2026-04-22 00:46 | 51.08366 | -22.66822 | 34883 ft | 452 kts | 92° |
| 2026-04-22 00:47 | 51.08162 | -22.56829 | 34877 ft | 454 kts | 92° |
| 2026-04-22 00:47 | 51.07952 | -22.46851 | 34890 ft | 451 kts | 92° |
| 2026-04-22 00:48 | 51.07732 | -22.36882 | 34877 ft | 449 kts | 92° |
| 2026-04-22 00:48 | 51.07506 | -22.27048 | 34866 ft | 446 kts | 92° |
| 2026-04-22 00:49 | 51.07272 | -22.17185 | 34872 ft | 449 kts | 92° |
| 2026-04-22 00:49 | 51.07029 | -22.07305 | 34883 ft | 448 kts | 93° |
| 2026-04-22 00:50 | 51.06779 | -21.97445 | 34872 ft | 445 kts | 93° |
| 2026-04-22 00:50 | 51.06519 | -21.87570 | 34856 ft | 446 kts | 93° |
| 2026-04-22 00:51 | 51.06252 | -21.77696 | 34850 ft | 449 kts | 93° |
| 2026-04-22 00:51 | 51.05975 | -21.67805 | 34868 ft | 449 kts | 93° |
| 2026-04-22 00:52 | 51.05691 | -21.57938 | 34871 ft | 446 kts | 93° |
| 2026-04-22 00:52 | 51.05399 | -21.48085 | 34856 ft | 445 kts | 94° |
| 2026-04-22 00:53 | 51.05100 | -21.38287 | 34851 ft | 448 kts | 94° |
| 2026-04-22 00:53 | 51.04791 | -21.28431 | 34856 ft | 448 kts | 94° |
| 2026-04-22 00:54 | 51.04477 | -21.18621 | 34864 ft | 441 kts | 94° |
| 2026-04-22 00:54 | 51.04155 | -21.08894 | 34858 ft | 439 kts | 94° |
| 2026-04-22 00:55 | 51.03824 | -20.99147 | 34846 ft | 443 kts | 94° |
| 2026-04-22 00:55 | 51.03314 | -20.84514 | 34849 ft | 442 kts | 94° |
| 2026-04-22 00:56 | 51.02965 | -20.74779 | 34840 ft | 443 kts | 95° |
| 2026-04-22 00:56 | 51.02607 | -20.65034 | 34859 ft | 442 kts | 95° |
| 2026-04-22 00:57 | 51.02239 | -20.55271 | 34841 ft | 442 kts | 95° |
| 2026-04-22 00:57 | 51.01863 | -20.45503 | 34832 ft | 442 kts | 95° |
| 2026-04-22 00:58 | 51.01484 | -20.35847 | 34845 ft | 442 kts | 95° |
| 2026-04-22 00:58 | 51.01095 | -20.26130 | 34850 ft | 441 kts | 95° |
| 2026-04-22 00:59 | 51.00696 | -20.16393 | 34852 ft | 441 kts | 95° |
| 2026-04-22 00:59 | 51.00290 | -20.06681 | 34827 ft | 439 kts | 95° |
| 2026-04-22 01:00 | 51.00099 | -19.97026 | 34843 ft | 438 kts | 91° |
| 2026-04-22 01:00 | 51.00249 | -19.87363 | 34846 ft | 438 kts | 90° |
| 2026-04-22 01:01 | 51.00447 | -19.77685 | 34846 ft | 438 kts | 90° |
| 2026-04-22 01:01 | 51.00642 | -19.67990 | 34844 ft | 439 kts | 90° |
| 2026-04-22 01:02 | 51.00794 | -19.59931 | 34849 ft | 440 kts | 90° |
| 2026-04-22 01:02 | 51.00991 | -19.48670 | 34832 ft | 440 kts | 90° |
| 2026-04-22 01:03 | 51.01151 | -19.38968 | 34843 ft | 440 kts | 90° |
| 2026-04-22 01:03 | 51.01303 | -19.29270 | 34838 ft | 438 kts | 90° |
| 2026-04-22 01:04 | 51.01425 | -19.21149 | 34834 ft | 439 kts | 91° |
| 2026-04-22 01:04 | 51.01561 | -19.11501 | 34842 ft | 441 kts | 91° |
| 2026-04-22 01:05 | 51.01690 | -19.01785 | 34853 ft | 441 kts | 91° |
| 2026-04-22 01:05 | 51.01813 | -18.92053 | 34836 ft | 440 kts | 91° |
| 2026-04-22 01:06 | 51.01928 | -18.82329 | 34844 ft | 440 kts | 91° |
| 2026-04-22 01:06 | 51.02035 | -18.72604 | 34832 ft | 440 kts | 91° |
| 2026-04-22 01:07 | 51.02132 | -18.62859 | 34858 ft | 442 kts | 92° |
| 2026-04-22 01:07 | 51.02222 | -18.53116 | 34852 ft | 441 kts | 92° |
| 2026-04-22 01:08 | 51.02303 | -18.43396 | 34855 ft | 440 kts | 92° |
| 2026-04-22 01:08 | 51.02376 | -18.33680 | 34841 ft | 440 kts | 92° |
| 2026-04-22 01:09 | 51.02442 | -18.23949 | 34835 ft | 440 kts | 92° |
| 2026-04-22 01:09 | 51.02499 | -18.14272 | 34848 ft | 442 kts | 93° |
| 2026-04-22 01:10 | 51.02548 | -18.04506 | 34857 ft | 443 kts | 93° |
| 2026-04-22 01:10 | 51.02589 | -17.94750 | 34856 ft | 442 kts | 93° |
| 2026-04-22 01:11 | 51.02623 | -17.84978 | 34865 ft | 442 kts | 93° |
| 2026-04-22 01:11 | 51.02649 | -17.75204 | 34860 ft | 442 kts | 93° |
| 2026-04-22 01:12 | 51.02665 | -17.65424 | 34848 ft | 444 kts | 94° |
| 2026-04-22 01:12 | 51.02673 | -17.55605 | 34863 ft | 445 kts | 94° |
| 2026-04-22 01:13 | 51.02674 | -17.45773 | 34861 ft | 445 kts | 94° |
| 2026-04-22 01:13 | 51.02667 | -17.35951 | 34867 ft | 444 kts | 94° |
| 2026-04-22 01:14 | 51.02651 | -17.26196 | 34867 ft | 444 kts | 94° |
| 2026-04-22 01:14 | 51.02626 | -17.16350 | 34875 ft | 448 kts | 94° |
| 2026-04-22 01:15 | 51.02592 | -17.06455 | 34879 ft | 448 kts | 94° |
| 2026-04-22 01:15 | 51.02555 | -16.96624 | 34867 ft | 442 kts | 94° |
| 2026-04-22 01:16 | 51.02507 | -16.86872 | 34867 ft | 441 kts | 94° |
| 2026-04-22 01:16 | 51.02449 | -16.77124 | 34870 ft | 441 kts | 94° |
| 2026-04-22 01:17 | 51.02383 | -16.67356 | 34870 ft | 443 kts | 95° |
| 2026-04-22 01:17 | 51.02309 | -16.57564 | 34878 ft | 443 kts | 95° |
| 2026-04-22 01:18 | 51.02228 | -16.47771 | 34878 ft | 443 kts | 95° |
| 2026-04-22 01:18 | 51.02140 | -16.38053 | 34874 ft | 443 kts | 95° |
| 2026-04-22 01:19 | 51.02042 | -16.28272 | 34872 ft | 443 kts | 95° |
| 2026-04-22 01:19 | 51.01936 | -16.18477 | 34884 ft | 445 kts | 95° |
| 2026-04-22 01:20 | 51.01821 | -16.08646 | 34882 ft | 445 kts | 95° |
| 2026-04-22 01:20 | 51.01698 | -15.98820 | 34893 ft | 445 kts | 95° |
| 2026-04-22 01:21 | 51.01568 | -15.88991 | 34892 ft | 445 kts | 95° |
| 2026-04-22 01:21 | 51.01429 | -15.79171 | 34887 ft | 445 kts | 95° |
| 2026-04-22 01:22 | 51.01280 | -15.69335 | 34888 ft | 447 kts | 95° |
| 2026-04-22 01:22 | 51.01123 | -15.59444 | 34898 ft | 448 kts | 95° |
| 2026-04-22 01:23 | 51.00959 | -15.49551 | 34910 ft | 448 kts | 95° |
| 2026-04-22 01:23 | 51.00788 | -15.39705 | 34906 ft | 445 kts | 96° |
| 2026-04-22 01:24 | 51.00607 | -15.29902 | 34906 ft | 444 kts | 96° |
| 2026-04-22 01:24 | 51.00417 | -15.20083 | 34901 ft | 446 kts | 96° |
| 2026-04-22 01:25 | 51.00219 | -15.10221 | 34903 ft | 447 kts | 96° |
| 2026-04-22 01:25 | 51.00014 | -15.00343 | 34915 ft | 447 kts | 96° |
| 2026-04-22 01:26 | 50.99939 | -14.90453 | 34912 ft | 449 kts | 93° |
| 2026-04-22 01:26 | 51.00021 | -14.80548 | 34921 ft | 449 kts | 93° |
| 2026-04-22 01:27 | 51.00087 | -14.70702 | 34923 ft | 449 kts | 94° |
| 2026-04-22 01:27 | 51.00113 | -14.60800 | 34928 ft | 448 kts | 94° |
| 2026-04-22 01:28 | 51.00117 | -14.50901 | 34930 ft | 448 kts | 94° |
| 2026-04-22 01:28 | 51.00111 | -14.41016 | 34917 ft | 448 kts | 94° |
| 2026-04-22 01:29 | 51.00098 | -14.31107 | 34910 ft | 448 kts | 94° |
| 2026-04-22 01:29 | 51.00078 | -14.21198 | 34929 ft | 449 kts | 94° |
| 2026-04-22 01:30 | 51.00049 | -14.11274 | 34929 ft | 450 kts | 94° |
| 2026-04-22 01:30 | 51.00012 | -14.01348 | 34944 ft | 450 kts | 94° |
| 2026-04-22 01:31 | 51.00099 | -13.91403 | 34942 ft | 451 kts | 92° |
| 2026-04-22 01:31 | 51.00399 | -13.81452 | 34941 ft | 451 kts | 91° |
| 2026-04-22 01:32 | 51.00688 | -13.71535 | 34955 ft | 454 kts | 91° |
| 2026-04-22 01:32 | 51.00934 | -13.61509 | 34953 ft | 454 kts | 92° |
| 2026-04-22 01:33 | 51.01154 | -13.51519 | 34957 ft | 452 kts | 92° |
| 2026-04-22 01:33 | 51.01361 | -13.41537 | 34960 ft | 452 kts | 92° |
| 2026-04-22 01:34 | 51.01561 | -13.31554 | 34946 ft | 452 kts | 92° |
| 2026-04-22 01:34 | 51.01754 | -13.21534 | 34960 ft | 455 kts | 92° |
| 2026-04-22 01:35 | 51.01939 | -13.11485 | 34974 ft | 455 kts | 93° |
| 2026-04-22 01:35 | 51.02117 | -13.01430 | 34974 ft | 455 kts | 93° |
| 2026-04-22 01:36 | 51.02285 | -12.91449 | 34977 ft | 455 kts | 93° |
| 2026-04-22 01:36 | 51.02446 | -12.81383 | 34975 ft | 456 kts | 93° |
| 2026-04-22 01:37 | 51.02596 | -12.71269 | 34989 ft | 459 kts | 93° |
| 2026-04-22 01:37 | 51.02741 | -12.61126 | 34981 ft | 459 kts | 93° |
| 2026-04-22 01:38 | 51.02877 | -12.50982 | 34988 ft | 459 kts | 93° |
| 2026-04-22 01:38 | 51.03003 | -12.40844 | 34992 ft | 459 kts | 94° |
| 2026-04-22 01:39 | 51.03121 | -12.30685 | 35006 ft | 462 kts | 94° |
| 2026-04-22 01:39 | 51.03228 | -12.20453 | 35006 ft | 464 kts | 94° |
| 2026-04-22 01:40 | 51.03330 | -12.10202 | 35005 ft | 464 kts | 94° |
| 2026-04-22 01:40 | 51.03422 | -12.00017 | 35013 ft | 464 kts | 94° |
| 2026-04-22 01:41 | 51.03506 | -11.89767 | 35013 ft | 464 kts | 94° |
| 2026-04-22 01:41 | 51.03580 | -11.79499 | 35022 ft | 466 kts | 94° |
| 2026-04-22 01:42 | 51.03644 | -11.69186 | 35026 ft | 467 kts | 94° |
| 2026-04-22 01:42 | 51.03702 | -11.58874 | 35032 ft | 467 kts | 95° |
| 2026-04-22 01:43 | 51.03749 | -11.48562 | 35025 ft | 467 kts | 94° |
| 2026-04-22 01:43 | 51.03787 | -11.38249 | 35025 ft | 467 kts | 94° |
| 2026-04-22 01:44 | 51.03814 | -11.27861 | 35033 ft | 472 kts | 94° |
| 2026-04-22 01:44 | 51.03835 | -11.17430 | 35046 ft | 472 kts | 95° |
| 2026-04-22 01:45 | 51.03849 | -11.07034 | 35040 ft | 469 kts | 95° |
| 2026-04-22 01:45 | 51.03850 | -10.96675 | 35048 ft | 469 kts | 95° |
| 2026-04-22 01:46 | 51.03841 | -10.86309 | 35052 ft | 472 kts | 95° |
| 2026-04-22 01:46 | 51.03822 | -10.75854 | 35059 ft | 474 kts | 95° |
| 2026-04-22 01:47 | 51.03797 | -10.65384 | 35050 ft | 474 kts | 95° |
| 2026-04-22 01:47 | 51.03763 | -10.54912 | 35056 ft | 474 kts | 95° |
| 2026-04-22 01:48 | 51.03719 | -10.44443 | 35053 ft | 474 kts | 95° |
| 2026-04-22 01:48 | 51.03662 | -10.33927 | 35067 ft | 479 kts | 95° |
| 2026-04-22 01:49 | 51.03597 | -10.23338 | 35075 ft | 480 kts | 95° |
| 2026-04-22 01:49 | 51.03524 | -10.12732 | 35075 ft | 480 kts | 95° |
| 2026-04-22 01:50 | 51.03441 | -10.02137 | 35083 ft | 480 kts | 95° |
| 2026-04-22 01:50 | 51.03349 | -9.91614 | 35083 ft | 480 kts | 95° |
| 2026-04-22 01:51 | 51.03246 | -9.81024 | 35091 ft | 479 kts | 95° |
| 2026-04-22 01:51 | 51.03135 | -9.70427 | 35091 ft | 479 kts | 96° |
| 2026-04-22 01:52 | 51.03013 | -9.59845 | 35083 ft | 479 kts | 96° |
| 2026-04-22 01:52 | 51.02881 | -9.49263 | 35078 ft | 479 kts | 95° |
| 2026-04-22 01:53 | 51.02737 | -9.38630 | 35091 ft | 484 kts | 95° |
| 2026-04-22 01:53 | 51.02585 | -9.27942 | 35097 ft | 484 kts | 95° |
| 2026-04-22 01:54 | 51.02424 | -9.17244 | 35100 ft | 484 kts | 96° |
| 2026-04-22 01:54 | 51.02252 | -9.06551 | 35108 ft | 484 kts | 96° |
| 2026-04-22 01:55 | 51.02070 | -8.95865 | 35106 ft | 485 kts | 96° |
| 2026-04-22 01:55 | 51.01878 | -8.85190 | 35113 ft | 488 kts | 95° |
| 2026-04-22 01:56 | 51.01676 | -8.74423 | 35109 ft | 488 kts | 96° |
| 2026-04-22 01:56 | 51.01465 | -8.63653 | 35111 ft | 487 kts | 96° |
| 2026-04-22 01:57 | 51.01245 | -8.52909 | 35112 ft | 486 kts | 96° |
| 2026-04-22 01:57 | 51.01012 | -8.42142 | 35121 ft | 490 kts | 96° |
| 2026-04-22 01:58 | 51.00766 | -8.31329 | 35119 ft | 491 kts | 96° |
| 2026-04-22 01:58 | 51.00515 | -8.20501 | 35119 ft | 491 kts | 96° |
| 2026-04-22 01:59 | 51.00253 | -8.09686 | 35132 ft | 491 kts | 96° |
| 2026-04-22 01:59 | 51.00071 | -8.00684 | 35121 ft | 493 kts | 93° |
| 2026-04-22 02:00 | 51.00303 | -7.89733 | 35140 ft | 498 kts | 91° |
| 2026-04-22 02:00 | 51.00625 | -7.78741 | 35145 ft | 498 kts | 90° |
| 2026-04-22 02:01 | 51.00953 | -7.67748 | 35139 ft | 498 kts | 91° |
| 2026-04-22 02:01 | 51.01266 | -7.56763 | 35127 ft | 498 kts | 90° |
| 2026-04-22 02:02 | 51.01561 | -7.45748 | 35143 ft | 500 kts | 90° |
| 2026-04-22 02:02 | 51.01846 | -7.34723 | 35152 ft | 501 kts | 91° |
| 2026-04-22 02:03 | 51.02121 | -7.23663 | 35151 ft | 501 kts | 91° |
| 2026-04-22 02:03 | 51.02383 | -7.12694 | 35169 ft | 501 kts | 91° |
| 2026-04-22 02:04 | 51.02760 | -6.96094 | 35166 ft | 503 kts | 90° |
| 2026-04-22 02:05 | 51.03003 | -6.84999 | 35166 ft | 503 kts | 91° |
| 2026-04-22 02:05 | 51.03232 | -6.73900 | 35162 ft | 503 kts | 91° |
| 2026-04-22 02:06 | 51.03448 | -6.62814 | 35173 ft | 503 kts | 91° |
| 2026-04-22 02:06 | 51.03655 | -6.51681 | 35179 ft | 508 kts | 90° |
| 2026-04-22 02:07 | 51.03855 | -6.40418 | 35181 ft | 511 kts | 91° |
| 2026-04-22 02:07 | 51.04046 | -6.29156 | 35179 ft | 509 kts | 90° |
| 2026-04-22 02:08 | 51.04227 | -6.17898 | 35185 ft | 509 kts | 91° |
| 2026-04-22 02:08 | 51.04393 | -6.06648 | 35182 ft | 511 kts | 90° |
| 2026-04-22 02:09 | 51.04550 | -5.95304 | 35186 ft | 513 kts | 90° |
| 2026-04-22 02:09 | 51.04696 | -5.83978 | 35193 ft | 512 kts | 90° |
| 2026-04-22 02:10 | 51.04832 | -5.72734 | 35194 ft | 513 kts | 90° |
| 2026-04-22 02:10 | 51.04956 | -5.61412 | 35197 ft | 514 kts | 89° |
| 2026-04-22 02:11 | 51.05071 | -5.50055 | 35199 ft | 515 kts | 90° |
| 2026-04-22 02:11 | 51.05175 | -5.38691 | 35209 ft | 515 kts | 90° |
| 2026-04-22 02:12 | 51.05268 | -5.27300 | 35212 ft | 515 kts | 90° |
| 2026-04-22 02:12 | 51.05349 | -5.15921 | 35211 ft | 514 kts | 90° |
| 2026-04-22 02:13 | 51.05420 | -5.04539 | 35210 ft | 514 kts | 90° |
| 2026-04-22 02:13 | 51.05479 | -4.93171 | 35210 ft | 514 kts | 90° |
| 2026-04-22 02:14 | 51.05527 | -4.81797 | 35209 ft | 514 kts | 90° |
| 2026-04-22 02:14 | 51.05563 | -4.70437 | 35204 ft | 514 kts | 90° |
| 2026-04-22 02:15 | 51.05589 | -4.59161 | 35206 ft | 514 kts | 90° |
| 2026-04-22 02:15 | 51.05605 | -4.47809 | 35209 ft | 514 kts | 90° |
| 2026-04-22 02:16 | 51.05610 | -4.36465 | 35208 ft | 514 kts | 90° |
| 2026-04-22 02:16 | 51.05603 | -4.25118 | 35222 ft | 513 kts | 90° |
| 2026-04-22 02:17 | 51.05585 | -4.13762 | 35211 ft | 514 kts | 90° |
| 2026-04-22 02:17 | 51.05556 | -4.02386 | 35213 ft | 515 kts | 90° |
| 2026-04-22 02:18 | 51.05516 | -3.91013 | 35220 ft | 515 kts | 90° |
| 2026-04-22 02:18 | 51.05465 | -3.79636 | 35220 ft | 515 kts | 90° |
| 2026-04-22 02:19 | 51.05403 | -3.68246 | 35225 ft | 516 kts | 90° |
| 2026-04-22 02:19 | 51.05330 | -3.56834 | 35229 ft | 517 kts | 90° |
| 2026-04-22 02:20 | 51.05245 | -3.45417 | 35233 ft | 517 kts | 90° |
| 2026-04-22 02:20 | 51.05150 | -3.34008 | 35236 ft | 517 kts | 90° |
| 2026-04-22 02:21 | 51.05042 | -3.22594 | 35243 ft | 518 kts | 90° |
| 2026-04-22 02:21 | 51.04924 | -3.11126 | 35236 ft | 519 kts | 90° |
| 2026-04-22 02:22 | 51.04795 | -2.99661 | 35250 ft | 519 kts | 90° |
| 2026-04-22 02:22 | 51.04655 | -2.88276 | 35246 ft | 519 kts | 90° |
| 2026-04-22 02:23 | 51.04504 | -2.76804 | 35239 ft | 520 kts | 90° |
| 2026-04-22 02:23 | 51.04340 | -2.65300 | 35244 ft | 521 kts | 90° |
| 2026-04-22 02:24 | 51.04165 | -2.53787 | 35235 ft | 521 kts | 90° |
| 2026-04-22 02:24 | 51.03978 | -2.42270 | 35245 ft | 521 kts | 90° |
| 2026-04-22 02:25 | 51.03780 | -2.30752 | 35241 ft | 522 kts | 90° |
| 2026-04-22 02:25 | 51.03571 | -2.19209 | 35243 ft | 523 kts | 90° |
| 2026-04-22 02:26 | 51.03350 | -2.07669 | 35250 ft | 523 kts | 90° |
| 2026-04-22 02:26 | 51.03255 | -2.01893 | 35479 ft | 521 kts | 88° |
| 2026-04-22 02:26 | 51.03388 | -1.96189 | 35898 ft | 514 kts | 85° |
| 2026-04-22 02:26 | 51.03581 | -1.90540 | 36299 ft | 510 kts | 85° |
| 2026-04-22 02:27 | 51.03795 | -1.84937 | 36652 ft | 507 kts | 84° |
| 2026-04-22 02:27 | 51.04020 | -1.79356 | 36906 ft | 505 kts | 84° |
| 2026-04-22 02:27 | 51.04248 | -1.73792 | 37127 ft | 505 kts | 84° |
| 2026-04-22 02:27 | 51.04471 | -1.68297 | 37255 ft | 506 kts | 84° |
| 2026-04-22 02:28 | 51.04695 | -1.62700 | 37265 ft | 509 kts | 84° |
| 2026-04-22 02:28 | 51.05130 | -1.51451 | 37264 ft | 510 kts | 84° |
| 2026-04-22 02:29 | 51.05547 | -1.40216 | 37277 ft | 509 kts | 84° |
| 2026-04-22 02:29 | 51.05953 | -1.28978 | 37265 ft | 509 kts | 84° |
| 2026-04-22 02:30 | 51.06349 | -1.17746 | 37264 ft | 509 kts | 84° |
| 2026-04-22 02:30 | 51.06735 | -1.06514 | 37269 ft | 509 kts | 84° |
| 2026-04-22 02:31 | 51.07110 | -0.95272 | 37269 ft | 509 kts | 84° |
| 2026-04-22 02:31 | 51.07473 | -0.84042 | 37282 ft | 509 kts | 84° |
| 2026-04-22 02:32 | 51.07826 | -0.72807 | 37289 ft | 508 kts | 84° |
| 2026-04-22 02:32 | 51.08168 | -0.61575 | 37283 ft | 508 kts | 84° |
| 2026-04-22 02:33 | 51.08499 | -0.50352 | 37290 ft | 508 kts | 84° |
| 2026-04-22 02:33 | 51.08820 | -0.39117 | 37288 ft | 508 kts | 85° |
| 2026-04-22 02:34 | 51.09130 | -0.27882 | 37297 ft | 508 kts | 85° |
| 2026-04-22 02:34 | 51.09429 | -0.16651 | 37297 ft | 508 kts | 85° |
| 2026-04-22 02:35 | 51.09715 | -0.05483 | 37297 ft | 508 kts | 85° |
| 2026-04-22 02:35 | 51.09992 | 0.05750 | 37411 ft | 508 kts | 85° |
| 2026-04-22 02:36 | 51.10258 | 0.16973 | 37464 ft | 507 kts | 85° |
| 2026-04-22 02:36 | 51.10514 | 0.28192 | 37532 ft | 508 kts | 85° |
| 2026-04-22 02:37 | 51.10759 | 0.39421 | 37558 ft | 508 kts | 85° |
| 2026-04-22 02:37 | 51.10993 | 0.50647 | 37571 ft | 508 kts | 85° |
| 2026-04-22 02:38 | 51.11216 | 0.61871 | 37505 ft | 508 kts | 85° |
| 2026-04-22 02:38 | 51.11429 | 0.73104 | 37460 ft | 508 kts | 85° |
| 2026-04-22 02:39 | 51.11630 | 0.84335 | 37389 ft | 508 kts | 85° |
| 2026-04-22 02:39 | 51.11821 | 0.95565 | 37299 ft | 508 kts | 85° |
| 2026-04-22 02:40 | 51.12001 | 1.06791 | 37271 ft | 507 kts | 85° |
| 2026-04-22 02:40 | 51.12170 | 1.17937 | 37276 ft | 507 kts | 85° |
| 2026-04-22 02:41 | 51.12328 | 1.29157 | 37279 ft | 507 kts | 86° |
| 2026-04-22 02:41 | 51.12477 | 1.40383 | 37284 ft | 507 kts | 86° |
| 2026-04-22 02:42 | 51.12614 | 1.51594 | 37284 ft | 506 kts | 86° |
| 2026-04-22 02:42 | 51.12741 | 1.62804 | 37284 ft | 506 kts | 86° |
| 2026-04-22 02:43 | 51.12857 | 1.74005 | 37281 ft | 506 kts | 86° |
| 2026-04-22 02:43 | 51.12962 | 1.85210 | 37281 ft | 506 kts | 86° |
| 2026-04-22 02:44 | 51.13055 | 1.96333 | 37269 ft | 505 kts | 86° |
| 2026-04-22 02:44 | 51.12691 | 2.07497 | 37271 ft | 505 kts | 91° |
| 2026-04-22 02:45 | 51.12113 | 2.18648 | 37271 ft | 506 kts | 92° |
| 2026-04-22 02:45 | 51.11490 | 2.29799 | 37273 ft | 506 kts | 92° |
| 2026-04-22 02:46 | 51.10863 | 2.40936 | 37279 ft | 505 kts | 92° |
| 2026-04-22 02:46 | 51.10231 | 2.52054 | 37273 ft | 504 kts | 92° |
| 2026-04-22 02:47 | 51.09538 | 2.63149 | 37271 ft | 505 kts | 96° |
| 2026-04-22 02:47 | 51.07902 | 2.74041 | 37273 ft | 507 kts | 103° |
| 2026-04-22 02:48 | 51.05967 | 2.84832 | 37309 ft | 508 kts | 104° |
| 2026-04-22 02:48 | 51.03980 | 2.95573 | 37286 ft | 505 kts | 104° |
| 2026-04-22 02:49 | 51.02002 | 3.06268 | 37283 ft | 504 kts | 104° |
| 2026-04-22 02:49 | 51.00029 | 3.16949 | 37277 ft | 504 kts | 104° |
| 2026-04-22 02:50 | 50.98049 | 3.27626 | 37275 ft | 504 kts | 104° |
| 2026-04-22 02:50 | 50.96061 | 3.38286 | 37274 ft | 503 kts | 104° |
| 2026-04-22 02:51 | 50.94071 | 3.48897 | 37275 ft | 502 kts | 104° |
| 2026-04-22 02:51 | 50.92071 | 3.59492 | 37275 ft | 502 kts | 104° |
| 2026-04-22 02:52 | 50.90064 | 3.70071 | 37271 ft | 502 kts | 104° |
| 2026-04-22 02:52 | 50.88045 | 3.80650 | 37277 ft | 501 kts | 105° |
| 2026-04-22 02:53 | 50.86038 | 3.91106 | 37277 ft | 499 kts | 105° |
| 2026-04-22 02:53 | 50.84013 | 4.01602 | 37279 ft | 499 kts | 105° |
| 2026-04-22 02:54 | 50.81977 | 4.12093 | 37281 ft | 499 kts | 105° |
| 2026-04-22 02:54 | 50.79933 | 4.22573 | 37287 ft | 499 kts | 105° |
| 2026-04-22 02:55 | 50.77873 | 4.33072 | 37287 ft | 501 kts | 105° |
| 2026-04-22 02:55 | 50.76136 | 4.41888 | 37290 ft | 502 kts | 105° |
| 2026-04-22 02:56 | 50.74064 | 4.52344 | 37286 ft | 502 kts | 105° |
| 2026-04-22 02:56 | 50.71969 | 4.62859 | 37282 ft | 502 kts | 105° |
| 2026-04-22 02:57 | 50.69867 | 4.73353 | 37273 ft | 501 kts | 105° |
| 2026-04-22 02:57 | 50.67761 | 4.83810 | 37267 ft | 500 kts | 105° |
| 2026-04-22 02:58 | 50.65659 | 4.94262 | 37269 ft | 500 kts | 104° |
| 2026-04-22 02:58 | 50.63889 | 5.04838 | 37280 ft | 499 kts | 101° |
| 2026-04-22 02:59 | 50.62254 | 5.15450 | 37283 ft | 499 kts | 101° |
| 2026-04-22 02:59 | 50.60570 | 5.26021 | 37274 ft | 497 kts | 102° |
| 2026-04-22 03:00 | 50.58840 | 5.36541 | 37277 ft | 496 kts | 102° |
| 2026-04-22 03:00 | 50.57086 | 5.47055 | 37279 ft | 497 kts | 102° |
| 2026-04-22 03:01 | 50.55324 | 5.57555 | 37263 ft | 497 kts | 102° |
| 2026-04-22 03:01 | 50.53567 | 5.67973 | 37269 ft | 496 kts | 102° |
| 2026-04-22 03:02 | 50.51791 | 5.78449 | 37272 ft | 496 kts | 102° |
| 2026-04-22 03:02 | 50.50006 | 5.88913 | 37271 ft | 496 kts | 103° |
| 2026-04-22 03:03 | 50.48209 | 5.99389 | 37265 ft | 497 kts | 103° |
| 2026-04-22 03:03 | 50.46399 | 6.09876 | 37273 ft | 498 kts | 103° |
| 2026-04-22 03:04 | 50.44578 | 6.20357 | 37262 ft | 498 kts | 103° |
| 2026-04-22 03:04 | 50.42748 | 6.30832 | 37260 ft | 498 kts | 103° |
| 2026-04-22 03:05 | 50.40942 | 6.41314 | 37261 ft | 497 kts | 101° |
| 2026-04-22 03:05 | 50.39478 | 6.51897 | 37268 ft | 497 kts | 99° |
| 2026-04-22 03:06 | 50.38100 | 6.62508 | 37261 ft | 497 kts | 99° |
| 2026-04-22 03:06 | 50.36666 | 6.73098 | 37264 ft | 497 kts | 99° |
| 2026-04-22 03:07 | 50.35184 | 6.83675 | 37263 ft | 497 kts | 100° |
| 2026-04-22 03:07 | 50.33682 | 6.94250 | 37286 ft | 497 kts | 100° |
| 2026-04-22 03:08 | 50.32183 | 7.04724 | 37270 ft | 497 kts | 100° |
| 2026-04-22 03:08 | 50.30667 | 7.15272 | 37262 ft | 497 kts | 100° |
| 2026-04-22 03:09 | 50.29142 | 7.25807 | 37271 ft | 497 kts | 100° |
| 2026-04-22 03:09 | 50.27609 | 7.36332 | 37270 ft | 497 kts | 100° |
| 2026-04-22 03:10 | 50.26066 | 7.46855 | 37277 ft | 497 kts | 100° |
| 2026-04-22 03:10 | 50.24510 | 7.57387 | 37286 ft | 497 kts | 101° |
| 2026-04-22 03:11 | 50.22948 | 7.67915 | 37283 ft | 497 kts | 101° |
| 2026-04-22 03:11 | 50.21377 | 7.78435 | 37288 ft | 497 kts | 101° |
| 2026-04-22 03:12 | 50.19798 | 7.88944 | 37286 ft | 497 kts | 101° |
| 2026-04-22 03:12 | 50.17415 | 8.04673 | 37288 ft | 496 kts | 101° |
| 2026-04-22 03:13 | 50.15816 | 8.15144 | 37287 ft | 496 kts | 101° |
| 2026-04-22 03:13 | 50.14208 | 8.25598 | 37285 ft | 496 kts | 101° |
| 2026-04-22 03:14 | 50.12590 | 8.36055 | 37283 ft | 496 kts | 101° |
| 2026-04-22 03:14 | 50.10964 | 8.46497 | 37289 ft | 496 kts | 101° |
| 2026-04-22 03:15 | 50.09325 | 8.56956 | 37290 ft | 498 kts | 101° |
| 2026-04-22 03:15 | 50.07671 | 8.67440 | 37292 ft | 498 kts | 101° |
| 2026-04-22 03:16 | 50.06011 | 8.77839 | 37287 ft | 499 kts | 102° |
| 2026-04-22 03:16 | 50.03866 | 8.88116 | 37288 ft | 500 kts | 106° |
| 2026-04-22 03:17 | 50.01570 | 8.98338 | 37285 ft | 500 kts | 107° |
| 2026-04-22 03:17 | 49.99244 | 9.08527 | 37276 ft | 501 kts | 107° |
| 2026-04-22 03:18 | 49.96911 | 9.18727 | 37274 ft | 500 kts | 107° |
| 2026-04-22 03:18 | 49.94580 | 9.28900 | 37261 ft | 500 kts | 107° |
| 2026-04-22 03:19 | 49.92242 | 9.39064 | 37267 ft | 500 kts | 107° |
| 2026-04-22 03:19 | 49.89895 | 9.49220 | 37253 ft | 500 kts | 107° |
| 2026-04-22 03:20 | 49.87538 | 9.59370 | 37264 ft | 500 kts | 107° |
| 2026-04-22 03:20 | 49.85172 | 9.69510 | 37252 ft | 501 kts | 107° |
| 2026-04-22 03:21 | 49.82795 | 9.79649 | 37254 ft | 501 kts | 107° |
| 2026-04-22 03:21 | 49.80408 | 9.89781 | 37252 ft | 501 kts | 107° |
| 2026-04-22 03:22 | 49.78014 | 9.99897 | 37295 ft | 501 kts | 107° |
| 2026-04-22 03:22 | 49.75629 | 10.09929 | 37273 ft | 500 kts | 108° |
| 2026-04-22 03:23 | 49.73219 | 10.20019 | 37288 ft | 502 kts | 108° |
| 2026-04-22 03:23 | 49.70791 | 10.30136 | 37286 ft | 502 kts | 108° |
| 2026-04-22 03:24 | 49.68351 | 10.40257 | 37279 ft | 502 kts | 108° |
| 2026-04-22 03:24 | 49.65905 | 10.50357 | 37274 ft | 503 kts | 108° |
| 2026-04-22 03:25 | 49.63447 | 10.60457 | 37277 ft | 503 kts | 108° |
| 2026-04-22 03:25 | 49.60982 | 10.70544 | 37277 ft | 503 kts | 108° |
| 2026-04-22 03:26 | 49.58506 | 10.80626 | 37274 ft | 503 kts | 108° |
| 2026-04-22 03:26 | 49.56024 | 10.90689 | 37268 ft | 502 kts | 108° |
| 2026-04-22 03:27 | 49.53535 | 11.00736 | 37322 ft | 502 kts | 108° |
| 2026-04-22 03:27 | 49.52290 | 11.05743 | 37552 ft | 500 kts | 108° |
| 2026-04-22 03:27 | 49.51006 | 11.10718 | 37791 ft | 500 kts | 110° |
| 2026-04-22 03:28 | 49.49666 | 11.15652 | 37965 ft | 500 kts | 110° |
| 2026-04-22 03:28 | 49.48303 | 11.20567 | 38109 ft | 500 kts | 111° |
| 2026-04-22 03:28 | 49.46930 | 11.25491 | 38307 ft | 501 kts | 111° |
| 2026-04-22 03:28 | 49.45581 | 11.30344 | 38474 ft | 500 kts | 111° |
| 2026-04-22 03:29 | 49.44222 | 11.35254 | 38609 ft | 500 kts | 110° |
| 2026-04-22 03:29 | 49.42864 | 11.40177 | 38741 ft | 500 kts | 110° |
| 2026-04-22 03:29 | 49.41508 | 11.45096 | 38887 ft | 501 kts | 110° |
| 2026-04-22 03:29 | 49.40150 | 11.50023 | 38968 ft | 501 kts | 110° |
| 2026-04-22 03:30 | 49.37422 | 11.59898 | 38993 ft | 506 kts | 111° |
| 2026-04-22 03:30 | 49.34666 | 11.69827 | 39208 ft | 505 kts | 111° |
| 2026-04-22 03:31 | 49.31895 | 11.79761 | 39251 ft | 507 kts | 111° |
| 2026-04-22 03:31 | 49.29115 | 11.89685 | 39257 ft | 507 kts | 111° |
| 2026-04-22 03:32 | 49.26326 | 11.99597 | 39260 ft | 507 kts | 111° |
| 2026-04-22 03:32 | 49.23548 | 12.09434 | 39260 ft | 507 kts | 111° |
| 2026-04-22 03:33 | 49.20744 | 12.19321 | 39257 ft | 507 kts | 111° |
| 2026-04-22 03:33 | 49.17930 | 12.29203 | 39258 ft | 507 kts | 111° |
| 2026-04-22 03:34 | 49.15109 | 12.39067 | 39260 ft | 507 kts | 111° |
| 2026-04-22 03:34 | 49.12279 | 12.48923 | 39267 ft | 507 kts | 111° |
| 2026-04-22 03:35 | 49.09439 | 12.58774 | 39256 ft | 507 kts | 111° |
| 2026-04-22 03:35 | 49.06590 | 12.68616 | 39256 ft | 507 kts | 111° |
| 2026-04-22 03:36 | 49.03732 | 12.78446 | 39261 ft | 507 kts | 112° |
| 2026-04-22 03:36 | 49.00865 | 12.88269 | 39261 ft | 508 kts | 112° |
| 2026-04-22 03:37 | 48.98001 | 12.98043 | 39260 ft | 509 kts | 112° |
| 2026-04-22 03:37 | 48.95106 | 13.07880 | 39254 ft | 509 kts | 112° |
| 2026-04-22 03:38 | 48.92204 | 13.17704 | 39257 ft | 509 kts | 112° |
| 2026-04-22 03:38 | 48.89292 | 13.27520 | 39272 ft | 509 kts | 112° |
| 2026-04-22 03:39 | 48.86373 | 13.37322 | 39262 ft | 510 kts | 112° |
| 2026-04-22 03:39 | 48.83443 | 13.47120 | 39266 ft | 510 kts | 112° |
| 2026-04-22 03:40 | 48.80505 | 13.56908 | 39263 ft | 510 kts | 112° |
| 2026-04-22 03:40 | 48.77560 | 13.66680 | 39274 ft | 510 kts | 113° |
| 2026-04-22 03:41 | 48.74621 | 13.76465 | 39265 ft | 510 kts | 112° |
| 2026-04-22 03:41 | 48.71743 | 13.86278 | 39262 ft | 510 kts | 112° |
| 2026-04-22 03:42 | 48.68864 | 13.96094 | 39260 ft | 510 kts | 112° |
| 2026-04-22 03:42 | 48.65970 | 14.05885 | 39269 ft | 510 kts | 112° |
| 2026-04-22 03:43 | 48.63058 | 14.15677 | 39263 ft | 511 kts | 112° |
| 2026-04-22 03:43 | 48.60130 | 14.25476 | 39257 ft | 512 kts | 112° |
| 2026-04-22 03:44 | 48.57194 | 14.35264 | 39263 ft | 512 kts | 112° |
| 2026-04-22 03:44 | 48.54249 | 14.45045 | 39257 ft | 512 kts | 112° |
| 2026-04-22 03:45 | 48.51316 | 14.54748 | 39257 ft | 512 kts | 112° |
| 2026-04-22 03:45 | 48.48356 | 14.64502 | 39253 ft | 512 kts | 112° |
| 2026-04-22 03:46 | 48.45386 | 14.74249 | 39250 ft | 512 kts | 113° |
| 2026-04-22 03:46 | 48.42408 | 14.83983 | 39258 ft | 512 kts | 113° |
| 2026-04-22 03:47 | 48.39420 | 14.93713 | 39255 ft | 512 kts | 113° |
| 2026-04-22 03:47 | 48.36423 | 15.03436 | 39254 ft | 512 kts | 113° |
| 2026-04-22 03:48 | 48.33417 | 15.13145 | 39254 ft | 512 kts | 113° |
| 2026-04-22 03:48 | 48.30403 | 15.22849 | 39259 ft | 512 kts | 113° |
| 2026-04-22 03:49 | 48.27382 | 15.32533 | 39244 ft | 512 kts | 114° |
| 2026-04-22 03:49 | 48.24863 | 15.40581 | 39253 ft | 513 kts | 114° |
| 2026-04-22 03:50 | 48.21821 | 15.50266 | 39246 ft | 514 kts | 114° |
| 2026-04-22 03:50 | 48.18766 | 15.59951 | 39249 ft | 514 kts | 114° |
| 2026-04-22 03:51 | 48.15704 | 15.69622 | 39247 ft | 514 kts | 114° |
| 2026-04-22 03:51 | 48.12632 | 15.79291 | 39238 ft | 514 kts | 114° |
| 2026-04-22 03:52 | 48.09549 | 15.88953 | 39233 ft | 514 kts | 114° |
| 2026-04-22 03:52 | 48.06462 | 15.98592 | 39236 ft | 514 kts | 114° |
| 2026-04-22 03:53 | 48.03367 | 16.08222 | 39225 ft | 514 kts | 114° |
| 2026-04-22 03:53 | 48.00266 | 16.17829 | 39216 ft | 514 kts | 114° |
| 2026-04-22 03:54 | 47.97157 | 16.27427 | 39218 ft | 514 kts | 114° |
| 2026-04-22 03:54 | 47.94040 | 16.37017 | 39208 ft | 514 kts | 115° |
| 2026-04-22 03:55 | 47.90912 | 16.46601 | 39203 ft | 514 kts | 115° |
| 2026-04-22 03:55 | 47.87776 | 16.56175 | 39200 ft | 514 kts | 115° |
| 2026-04-22 03:56 | 47.84629 | 16.65747 | 39197 ft | 515 kts | 115° |
| 2026-04-22 03:56 | 47.81468 | 16.75326 | 39199 ft | 516 kts | 115° |
| 2026-04-22 03:57 | 47.78296 | 16.84899 | 39189 ft | 516 kts | 115° |
| 2026-04-22 03:57 | 47.75117 | 16.94459 | 39189 ft | 516 kts | 115° |
| 2026-04-22 03:58 | 47.71930 | 17.04010 | 39196 ft | 516 kts | 115° |
| 2026-04-22 03:58 | 47.68745 | 17.13560 | 39182 ft | 517 kts | 115° |
| 2026-04-22 03:59 | 47.65565 | 17.23121 | 39180 ft | 517 kts | 115° |
| 2026-04-22 03:59 | 47.62374 | 17.32678 | 39184 ft | 517 kts | 115° |
| 2026-04-22 04:00 | 47.59196 | 17.42153 | 39191 ft | 517 kts | 115° |
| 2026-04-22 04:00 | 47.55985 | 17.51683 | 39184 ft | 518 kts | 116° |
| 2026-04-22 04:01 | 47.52761 | 17.61218 | 39185 ft | 518 kts | 116° |
| 2026-04-22 04:01 | 47.49530 | 17.70738 | 39182 ft | 518 kts | 116° |
| 2026-04-22 04:02 | 47.46294 | 17.80239 | 39185 ft | 518 kts | 116° |
| 2026-04-22 04:02 | 47.43047 | 17.89739 | 39178 ft | 518 kts | 116° |
| 2026-04-22 04:03 | 47.39791 | 17.99229 | 39172 ft | 518 kts | 116° |
| 2026-04-22 04:03 | 47.36528 | 18.08705 | 39170 ft | 518 kts | 116° |
| 2026-04-22 04:04 | 47.33277 | 18.18111 | 39172 ft | 518 kts | 116° |
| 2026-04-22 04:04 | 47.29999 | 18.27562 | 39167 ft | 518 kts | 116° |
| 2026-04-22 04:05 | 47.26714 | 18.37000 | 39164 ft | 518 kts | 116° |
| 2026-04-22 04:05 | 47.23420 | 18.46427 | 39164 ft | 518 kts | 116° |
| 2026-04-22 04:06 | 47.20119 | 18.55845 | 39158 ft | 518 kts | 117° |
| 2026-04-22 04:06 | 47.16808 | 18.65253 | 39156 ft | 518 kts | 117° |
| 2026-04-22 04:07 | 47.13488 | 18.74657 | 39157 ft | 518 kts | 117° |
| 2026-04-22 04:07 | 47.10161 | 18.84044 | 39160 ft | 518 kts | 117° |
| 2026-04-22 04:08 | 47.06825 | 18.93425 | 39145 ft | 519 kts | 117° |
| 2026-04-22 04:08 | 47.03475 | 19.02810 | 39144 ft | 520 kts | 117° |
| 2026-04-22 04:09 | 47.00112 | 19.12200 | 39143 ft | 521 kts | 117° |
| 2026-04-22 04:09 | 46.96735 | 19.21596 | 39141 ft | 521 kts | 117° |
| 2026-04-22 04:10 | 46.93371 | 19.30920 | 39138 ft | 522 kts | 117° |
| 2026-04-22 04:10 | 46.89979 | 19.40292 | 39138 ft | 522 kts | 117° |
| 2026-04-22 04:11 | 46.86577 | 19.49657 | 39130 ft | 522 kts | 117° |
| 2026-04-22 04:11 | 46.83167 | 19.59012 | 39130 ft | 522 kts | 117° |
| 2026-04-22 04:12 | 46.79747 | 19.68360 | 39129 ft | 522 kts | 118° |
| 2026-04-22 04:12 | 46.76319 | 19.77699 | 39130 ft | 522 kts | 118° |
| 2026-04-22 04:13 | 46.72884 | 19.87023 | 39129 ft | 522 kts | 118° |
| 2026-04-22 04:13 | 46.69438 | 19.96345 | 39119 ft | 523 kts | 118° |
| 2026-04-22 04:14 | 46.65979 | 20.05671 | 39134 ft | 523 kts | 118° |
| 2026-04-22 04:14 | 46.62511 | 20.14988 | 39125 ft | 524 kts | 118° |
| 2026-04-22 04:15 | 46.59025 | 20.24322 | 39124 ft | 526 kts | 118° |
| 2026-04-22 04:15 | 46.55523 | 20.33663 | 39125 ft | 526 kts | 118° |
| 2026-04-22 04:16 | 46.50260 | 20.47644 | 39125 ft | 526 kts | 118° |
| 2026-04-22 04:17 | 46.46742 | 20.56952 | 39116 ft | 526 kts | 118° |
| 2026-04-22 04:17 | 46.43233 | 20.66201 | 39121 ft | 528 kts | 119° |
| 2026-04-22 04:18 | 46.39688 | 20.75514 | 39119 ft | 528 kts | 119° |
| 2026-04-22 04:18 | 46.36137 | 20.84810 | 39115 ft | 528 kts | 119° |
| 2026-04-22 04:19 | 46.32577 | 20.94099 | 39112 ft | 528 kts | 119° |
| 2026-04-22 04:19 | 46.29010 | 21.03374 | 39108 ft | 528 kts | 119° |
| 2026-04-22 04:20 | 46.25601 | 21.12766 | 39101 ft | 528 kts | 115° |
| 2026-04-22 04:20 | 46.22547 | 21.22398 | 39111 ft | 528 kts | 114° |
| 2026-04-22 04:21 | 46.19545 | 21.32065 | 39097 ft | 528 kts | 114° |
| 2026-04-22 04:21 | 46.16534 | 21.41743 | 39102 ft | 529 kts | 114° |
| 2026-04-22 04:22 | 46.13505 | 21.51413 | 39106 ft | 529 kts | 114° |
| 2026-04-22 04:22 | 46.10464 | 21.61068 | 39108 ft | 529 kts | 114° |
| 2026-04-22 04:23 | 46.07411 | 21.70720 | 39108 ft | 529 kts | 114° |
| 2026-04-22 04:23 | 46.04370 | 21.80300 | 39106 ft | 530 kts | 114° |
| 2026-04-22 04:24 | 46.01303 | 21.89928 | 39109 ft | 530 kts | 114° |
| 2026-04-22 04:24 | 45.98225 | 21.99553 | 39105 ft | 529 kts | 114° |
| 2026-04-22 04:25 | 45.95147 | 22.09144 | 39106 ft | 529 kts | 114° |
| 2026-04-22 04:25 | 45.92058 | 22.18733 | 39109 ft | 529 kts | 115° |
| 2026-04-22 04:26 | 45.88959 | 22.28315 | 39107 ft | 529 kts | 115° |
| 2026-04-22 04:26 | 45.85852 | 22.37888 | 39105 ft | 529 kts | 115° |
| 2026-04-22 04:27 | 45.82737 | 22.47453 | 39105 ft | 529 kts | 115° |
| 2026-04-22 04:27 | 45.79610 | 22.57015 | 39104 ft | 530 kts | 115° |
| 2026-04-22 04:28 | 45.76479 | 22.66559 | 39103 ft | 529 kts | 115° |
| 2026-04-22 04:28 | 45.73342 | 22.76082 | 39100 ft | 529 kts | 115° |
| 2026-04-22 04:29 | 45.70219 | 22.85529 | 39097 ft | 529 kts | 115° |
| 2026-04-22 04:29 | 45.67069 | 22.95027 | 39096 ft | 529 kts | 115° |
| 2026-04-22 04:30 | 45.63909 | 23.04517 | 39098 ft | 529 kts | 115° |
| 2026-04-22 04:30 | 45.60740 | 23.13999 | 39092 ft | 529 kts | 116° |
| 2026-04-22 04:31 | 45.57561 | 23.23478 | 39092 ft | 529 kts | 116° |
| 2026-04-22 04:31 | 45.54377 | 23.32941 | 39088 ft | 529 kts | 116° |
| 2026-04-22 04:32 | 45.51184 | 23.42392 | 39084 ft | 529 kts | 116° |
| 2026-04-22 04:32 | 45.47980 | 23.51845 | 39081 ft | 529 kts | 116° |
| 2026-04-22 04:33 | 45.44771 | 23.61278 | 39083 ft | 529 kts | 116° |
| 2026-04-22 04:33 | 45.41575 | 23.70638 | 39083 ft | 529 kts | 116° |
| 2026-04-22 04:34 | 45.38351 | 23.80047 | 39083 ft | 529 kts | 116° |
| 2026-04-22 04:34 | 45.35119 | 23.89448 | 39085 ft | 529 kts | 116° |
| 2026-04-22 04:35 | 45.31881 | 23.98832 | 39078 ft | 528 kts | 116° |
| 2026-04-22 04:35 | 45.28639 | 24.08196 | 39077 ft | 528 kts | 116° |
| 2026-04-22 04:36 | 45.25391 | 24.17544 | 39080 ft | 528 kts | 117° |
| 2026-04-22 04:36 | 45.22135 | 24.26882 | 39081 ft | 528 kts | 117° |
| 2026-04-22 04:37 | 45.18869 | 24.36218 | 39083 ft | 528 kts | 117° |
| 2026-04-22 04:37 | 45.15596 | 24.45538 | 39081 ft | 528 kts | 117° |
| 2026-04-22 04:38 | 45.12314 | 24.54853 | 39083 ft | 528 kts | 117° |
| 2026-04-22 04:38 | 45.09026 | 24.64153 | 39085 ft | 528 kts | 117° |
| 2026-04-22 04:39 | 45.05731 | 24.73442 | 39083 ft | 528 kts | 117° |
| 2026-04-22 04:39 | 45.02429 | 24.82717 | 39076 ft | 528 kts | 117° |
| 2026-04-22 04:40 | 44.99118 | 24.91988 | 39081 ft | 529 kts | 117° |
| 2026-04-22 04:40 | 44.95794 | 25.01261 | 39080 ft | 529 kts | 118° |
| 2026-04-22 04:41 | 44.92488 | 25.10451 | 39079 ft | 529 kts | 118° |
| 2026-04-22 04:41 | 44.89151 | 25.19699 | 39076 ft | 529 kts | 118° |
| 2026-04-22 04:42 | 44.85803 | 25.28945 | 39078 ft | 530 kts | 118° |
| 2026-04-22 04:42 | 44.82445 | 25.38186 | 39075 ft | 530 kts | 118° |
| 2026-04-22 04:43 | 44.79082 | 25.47411 | 39072 ft | 530 kts | 118° |
| 2026-04-22 04:43 | 44.75711 | 25.56629 | 39072 ft | 530 kts | 118° |
| 2026-04-22 04:44 | 44.72900 | 25.64289 | 39075 ft | 530 kts | 118° |
| 2026-04-22 04:44 | 44.68963 | 25.74982 | 39073 ft | 530 kts | 118° |
| 2026-04-22 04:45 | 44.66121 | 25.82677 | 39070 ft | 530 kts | 118° |
| 2026-04-22 04:45 | 44.62721 | 25.91853 | 39073 ft | 530 kts | 118° |
| 2026-04-22 04:46 | 44.59314 | 26.01019 | 39076 ft | 530 kts | 118° |
| 2026-04-22 04:46 | 44.55899 | 26.10175 | 39075 ft | 530 kts | 119° |
| 2026-04-22 04:47 | 44.52478 | 26.19315 | 39072 ft | 529 kts | 119° |
| 2026-04-22 04:47 | 44.49049 | 26.28447 | 39074 ft | 529 kts | 119° |
| 2026-04-22 04:48 | 44.45639 | 26.37499 | 39071 ft | 529 kts | 119° |
| 2026-04-22 04:48 | 44.42199 | 26.46602 | 39064 ft | 529 kts | 119° |
| 2026-04-22 04:49 | 44.38750 | 26.55697 | 39072 ft | 529 kts | 119° |
| 2026-04-22 04:49 | 44.35297 | 26.64776 | 39069 ft | 529 kts | 119° |
| 2026-04-22 04:50 | 44.31836 | 26.73845 | 39067 ft | 529 kts | 119° |
| 2026-04-22 04:50 | 44.28366 | 26.82905 | 39064 ft | 529 kts | 119° |
| 2026-04-22 04:51 | 44.24892 | 26.91951 | 39067 ft | 529 kts | 120° |
| 2026-04-22 04:51 | 44.21410 | 27.00986 | 39056 ft | 529 kts | 120° |
| 2026-04-22 04:52 | 44.17923 | 27.10006 | 39066 ft | 529 kts | 120° |
| 2026-04-22 04:52 | 44.14428 | 27.19016 | 39062 ft | 529 kts | 120° |
| 2026-04-22 04:53 | 44.10951 | 27.27951 | 39063 ft | 529 kts | 120° |
| 2026-04-22 04:53 | 44.07442 | 27.36941 | 39064 ft | 529 kts | 120° |
| 2026-04-22 04:54 | 44.03927 | 27.45917 | 39061 ft | 529 kts | 120° |
| 2026-04-22 04:54 | 44.00406 | 27.54880 | 39062 ft | 529 kts | 120° |
| 2026-04-22 04:55 | 43.96874 | 27.63841 | 39058 ft | 529 kts | 121° |
| 2026-04-22 04:55 | 43.93337 | 27.72788 | 39059 ft | 529 kts | 121° |
| 2026-04-22 04:56 | 43.89793 | 27.81723 | 39059 ft | 529 kts | 121° |
| 2026-04-22 04:56 | 43.86241 | 27.90652 | 39054 ft | 529 kts | 121° |
| 2026-04-22 04:57 | 43.82684 | 27.99565 | 39061 ft | 528 kts | 121° |
| 2026-04-22 04:57 | 43.79123 | 28.08460 | 39065 ft | 528 kts | 121° |
| 2026-04-22 04:58 | 43.75577 | 28.17288 | 39061 ft | 528 kts | 121° |
| 2026-04-22 04:58 | 43.72002 | 28.26163 | 39063 ft | 528 kts | 121° |
| 2026-04-22 04:59 | 43.68423 | 28.35019 | 39066 ft | 528 kts | 122° |
| 2026-04-22 04:59 | 43.64837 | 28.43865 | 39066 ft | 528 kts | 122° |
| 2026-04-22 05:00 | 43.61244 | 28.52703 | 39066 ft | 528 kts | 122° |
| 2026-04-22 05:00 | 43.57643 | 28.61530 | 39073 ft | 528 kts | 122° |
| 2026-04-22 05:01 | 43.54036 | 28.70347 | 39069 ft | 528 kts | 122° |
| 2026-04-22 05:01 | 43.50420 | 28.79157 | 39067 ft | 528 kts | 122° |
| 2026-04-22 05:02 | 43.46794 | 28.87964 | 39068 ft | 529 kts | 122° |
| 2026-04-22 05:02 | 43.43159 | 28.96769 | 39068 ft | 529 kts | 122° |
| 2026-04-22 05:03 | 43.39519 | 29.05557 | 39058 ft | 529 kts | 122° |
| 2026-04-22 05:03 | 43.35864 | 29.14352 | 39070 ft | 530 kts | 122° |
| 2026-04-22 05:04 | 43.32197 | 29.23154 | 39067 ft | 531 kts | 123° |
| 2026-04-22 05:04 | 43.28523 | 29.31942 | 39064 ft | 531 kts | 123° |
| 2026-04-22 05:05 | 43.24839 | 29.40728 | 39067 ft | 532 kts | 123° |
| 2026-04-22 05:05 | 43.21135 | 29.49537 | 39067 ft | 533 kts | 123° |
| 2026-04-22 05:06 | 43.17423 | 29.58336 | 39069 ft | 534 kts | 123° |
| 2026-04-22 05:06 | 43.13704 | 29.67129 | 39064 ft | 534 kts | 123° |
| 2026-04-22 05:07 | 43.09999 | 29.75858 | 39067 ft | 534 kts | 123° |
| 2026-04-22 05:07 | 43.06265 | 29.84632 | 39067 ft | 534 kts | 123° |
| 2026-04-22 05:08 | 43.02522 | 29.93398 | 39059 ft | 534 kts | 123° |
| 2026-04-22 05:08 | 42.98766 | 30.02169 | 39061 ft | 535 kts | 123° |
| 2026-04-22 05:09 | 42.95000 | 30.10936 | 39063 ft | 535 kts | 123° |
| 2026-04-22 05:09 | 42.91230 | 30.19689 | 39062 ft | 535 kts | 123° |
| 2026-04-22 05:10 | 42.87457 | 30.28420 | 39061 ft | 534 kts | 123° |
| 2026-04-22 05:10 | 42.83680 | 30.37135 | 39059 ft | 534 kts | 123° |
| 2026-04-22 05:11 | 42.79895 | 30.45844 | 39057 ft | 534 kts | 123° |
| 2026-04-22 05:11 | 42.76152 | 30.54475 | 39055 ft | 533 kts | 121° |
| 2026-04-22 05:12 | 42.73560 | 30.63924 | 39062 ft | 536 kts | 101° |
| 2026-04-22 05:12 | 42.72341 | 30.73939 | 39047 ft | 538 kts | 98° |
| 2026-04-22 05:13 | 42.71357 | 30.84010 | 39054 ft | 537 kts | 98° |
| 2026-04-22 05:13 | 42.70376 | 30.94067 | 39056 ft | 537 kts | 98° |
| 2026-04-22 05:14 | 42.69353 | 31.04116 | 39059 ft | 536 kts | 98° |
| 2026-04-22 05:14 | 42.68304 | 31.14158 | 39049 ft | 536 kts | 98° |
| 2026-04-22 05:15 | 42.67245 | 31.24175 | 39050 ft | 536 kts | 98° |
| 2026-04-22 05:15 | 42.66177 | 31.34198 | 39053 ft | 536 kts | 98° |
| 2026-04-22 05:16 | 42.65131 | 31.43950 | 39052 ft | 536 kts | 99° |
| 2026-04-22 05:16 | 42.64146 | 31.53058 | 39048 ft | 538 kts | 99° |
| 2026-04-22 05:17 | 42.63046 | 31.63154 | 39052 ft | 543 kts | 99° |
| 2026-04-22 05:17 | 42.61928 | 31.73323 | 39047 ft | 546 kts | 99° |
| 2026-04-22 05:18 | 42.60226 | 31.88652 | 39048 ft | 548 kts | 99° |
| 2026-04-22 05:18 | 42.59079 | 31.98870 | 39054 ft | 548 kts | 99° |
| 2026-04-22 05:19 | 42.57941 | 32.09095 | 39048 ft | 548 kts | 99° |
| 2026-04-22 05:19 | 42.56783 | 32.19311 | 39031 ft | 548 kts | 99° |
| 2026-04-22 05:20 | 42.55603 | 32.29522 | 39044 ft | 548 kts | 99° |
| 2026-04-22 05:20 | 42.54416 | 32.39721 | 39050 ft | 548 kts | 99° |
| 2026-04-22 05:21 | 42.53223 | 32.49923 | 39046 ft | 548 kts | 100° |
| 2026-04-22 05:21 | 42.52029 | 32.60053 | 39048 ft | 548 kts | 100° |
| 2026-04-22 05:22 | 42.50820 | 32.70240 | 39046 ft | 547 kts | 100° |
| 2026-04-22 05:22 | 42.49602 | 32.80421 | 39045 ft | 547 kts | 100° |
| 2026-04-22 05:23 | 42.48374 | 32.90598 | 39042 ft | 547 kts | 100° |
| 2026-04-22 05:23 | 42.47139 | 33.00765 | 39039 ft | 547 kts | 100° |
| 2026-04-22 05:24 | 42.45893 | 33.10935 | 39044 ft | 547 kts | 100° |
| 2026-04-22 05:24 | 42.44644 | 33.21092 | 39043 ft | 547 kts | 100° |
| 2026-04-22 05:25 | 42.43379 | 33.31243 | 39033 ft | 546 kts | 101° |
| 2026-04-22 05:25 | 42.42105 | 33.41371 | 39039 ft | 546 kts | 101° |
| 2026-04-22 05:26 | 42.40829 | 33.51505 | 39039 ft | 546 kts | 101° |
| 2026-04-22 05:26 | 42.39538 | 33.61636 | 39038 ft | 546 kts | 101° |
| 2026-04-22 05:27 | 42.38241 | 33.71754 | 39033 ft | 546 kts | 101° |
| 2026-04-22 05:27 | 42.36935 | 33.81872 | 39031 ft | 546 kts | 101° |
| 2026-04-22 05:28 | 42.35623 | 33.91980 | 39029 ft | 546 kts | 101° |
| 2026-04-22 05:28 | 42.34308 | 34.02083 | 39031 ft | 546 kts | 101° |
| 2026-04-22 05:29 | 42.32987 | 34.12127 | 39031 ft | 546 kts | 101° |
| 2026-04-22 05:29 | 42.31650 | 34.22228 | 39034 ft | 546 kts | 101° |
| 2026-04-22 05:30 | 42.30304 | 34.32330 | 39036 ft | 546 kts | 102° |
| 2026-04-22 05:30 | 42.28951 | 34.42428 | 39037 ft | 547 kts | 102° |
| 2026-04-22 05:31 | 42.27587 | 34.52530 | 39034 ft | 547 kts | 102° |
| 2026-04-22 05:31 | 42.26208 | 34.62634 | 39035 ft | 547 kts | 102° |
| 2026-04-22 05:32 | 42.24822 | 34.72725 | 39025 ft | 547 kts | 102° |
| 2026-04-22 05:32 | 42.23430 | 34.82818 | 39033 ft | 547 kts | 102° |
| 2026-04-22 05:33 | 42.22026 | 34.92907 | 39035 ft | 547 kts | 102° |
| 2026-04-22 05:33 | 42.20606 | 35.02999 | 39038 ft | 548 kts | 102° |
| 2026-04-22 05:34 | 42.19177 | 35.13099 | 39040 ft | 549 kts | 102° |
| 2026-04-22 05:34 | 42.17739 | 35.23209 | 39025 ft | 550 kts | 102° |
| 2026-04-22 05:35 | 42.16302 | 35.33251 | 39033 ft | 549 kts | 102° |
| 2026-04-22 05:35 | 42.14849 | 35.43347 | 39025 ft | 548 kts | 102° |
| 2026-04-22 05:36 | 42.13392 | 35.53438 | 39038 ft | 549 kts | 102° |
| 2026-04-22 05:36 | 42.11922 | 35.63522 | 39034 ft | 548 kts | 103° |
| 2026-04-22 05:37 | 42.10444 | 35.73598 | 39030 ft | 548 kts | 103° |
| 2026-04-22 05:37 | 42.08959 | 35.83669 | 39035 ft | 549 kts | 103° |
| 2026-04-22 05:38 | 42.07463 | 35.93745 | 39037 ft | 549 kts | 103° |
| 2026-04-22 05:38 | 42.06213 | 36.02122 | 39029 ft | 549 kts | 103° |
| 2026-04-22 05:39 | 42.04700 | 36.12201 | 39012 ft | 549 kts | 103° |
| 2026-04-22 05:39 | 42.03178 | 36.22270 | 39022 ft | 550 kts | 103° |
| 2026-04-22 05:40 | 42.01398 | 36.33973 | 39032 ft | 550 kts | 103° |
| 2026-04-22 05:40 | 42.00105 | 36.42417 | 39031 ft | 550 kts | 103° |
| 2026-04-22 05:41 | 41.98556 | 36.52483 | 39021 ft | 550 kts | 103° |
| 2026-04-22 05:41 | 41.97009 | 36.62472 | 39028 ft | 550 kts | 103° |
| 2026-04-22 05:42 | 41.95443 | 36.72521 | 39020 ft | 549 kts | 103° |
| 2026-04-22 05:42 | 41.93859 | 36.82626 | 39024 ft | 549 kts | 103° |
| 2026-04-22 05:43 | 41.92288 | 36.92586 | 39020 ft | 549 kts | 103° |
| 2026-04-22 05:43 | 41.90646 | 37.02598 | 39025 ft | 548 kts | 108° |
| 2026-04-22 05:44 | 41.88028 | 37.12156 | 39021 ft | 545 kts | 114° |
| 2026-04-22 05:44 | 41.85100 | 37.21545 | 39032 ft | 546 kts | 115° |
| 2026-04-22 05:45 | 41.82110 | 37.30913 | 39018 ft | 546 kts | 115° |
| 2026-04-22 05:45 | 41.79123 | 37.40283 | 39017 ft | 547 kts | 115° |
| 2026-04-22 05:46 | 41.76140 | 37.49656 | 39023 ft | 548 kts | 115° |
| 2026-04-22 05:46 | 41.73148 | 37.59042 | 39023 ft | 548 kts | 115° |
| 2026-04-22 05:47 | 41.70151 | 37.68414 | 39023 ft | 548 kts | 115° |
| 2026-04-22 05:47 | 41.67144 | 37.77786 | 39020 ft | 548 kts | 115° |
| 2026-04-22 05:48 | 41.64132 | 37.87140 | 39018 ft | 548 kts | 115° |
| 2026-04-22 05:48 | 41.61113 | 37.96486 | 39015 ft | 548 kts | 115° |
| 2026-04-22 05:49 | 41.58090 | 38.05809 | 39013 ft | 546 kts | 115° |
| 2026-04-22 05:49 | 41.55084 | 38.15051 | 39012 ft | 546 kts | 116° |
| 2026-04-22 05:50 | 41.52053 | 38.24337 | 39009 ft | 546 kts | 116° |
| 2026-04-22 05:50 | 41.49017 | 38.33606 | 39007 ft | 545 kts | 116° |
| 2026-04-22 05:51 | 41.45979 | 38.42851 | 39008 ft | 544 kts | 116° |
| 2026-04-22 05:51 | 41.42934 | 38.52084 | 39007 ft | 544 kts | 116° |
| 2026-04-22 05:52 | 41.39886 | 38.61297 | 39002 ft | 543 kts | 116° |
| 2026-04-22 05:52 | 41.36832 | 38.70496 | 38997 ft | 543 kts | 116° |
| 2026-04-22 05:53 | 41.33791 | 38.79628 | 38996 ft | 543 kts | 116° |
| 2026-04-22 05:53 | 41.30747 | 38.88889 | 38992 ft | 543 kts | 116° |
| 2026-04-22 05:54 | 41.27765 | 38.98028 | 38999 ft | 543 kts | 116° |
| 2026-04-22 05:54 | 41.24750 | 39.07224 | 38990 ft | 543 kts | 116° |
| 2026-04-22 05:55 | 41.21723 | 39.16406 | 38977 ft | 542 kts | 116° |
| 2026-04-22 05:55 | 41.18623 | 39.25532 | 38969 ft | 542 kts | 117° |
| 2026-04-22 05:56 | 41.15424 | 39.34593 | 38960 ft | 542 kts | 117° |
| 2026-04-22 05:56 | 41.12220 | 39.43653 | 38955 ft | 542 kts | 117° |
| 2026-04-22 05:57 | 41.09026 | 39.52710 | 38945 ft | 542 kts | 117° |
| 2026-04-22 05:57 | 41.05834 | 39.61763 | 38941 ft | 542 kts | 117° |
| 2026-04-22 05:58 | 41.02635 | 39.70808 | 38933 ft | 542 kts | 117° |
| 2026-04-22 05:58 | 40.99995 | 39.80155 | 38938 ft | 545 kts | 103° |
| 2026-04-22 05:59 | 40.99210 | 39.90144 | 38938 ft | 547 kts | 93° |
| 2026-04-22 05:59 | 40.98955 | 40.00215 | 38939 ft | 547 kts | 92° |
| 2026-04-22 06:00 | 40.98764 | 40.10281 | 38939 ft | 547 kts | 92° |
| 2026-04-22 06:00 | 40.98536 | 40.20340 | 38943 ft | 547 kts | 92° |
| 2026-04-22 06:01 | 40.98275 | 40.30391 | 38936 ft | 546 kts | 92° |
| 2026-04-22 06:01 | 40.97990 | 40.40447 | 38933 ft | 547 kts | 93° |
| 2026-04-22 06:02 | 40.97698 | 40.50425 | 38939 ft | 546 kts | 93° |
| 2026-04-22 06:02 | 40.97399 | 40.60471 | 38941 ft | 546 kts | 93° |
| 2026-04-22 06:03 | 40.97092 | 40.70516 | 38940 ft | 547 kts | 93° |
| 2026-04-22 06:03 | 40.96777 | 40.80563 | 38947 ft | 546 kts | 93° |
| 2026-04-22 06:04 | 40.96455 | 40.90602 | 38944 ft | 546 kts | 93° |
| 2026-04-22 06:04 | 40.96127 | 41.00647 | 38955 ft | 547 kts | 93° |
| 2026-04-22 06:05 | 40.95782 | 41.10693 | 38975 ft | 547 kts | 93° |
| 2026-04-22 06:05 | 40.95428 | 41.20746 | 38990 ft | 547 kts | 93° |
| 2026-04-22 06:06 | 40.95068 | 41.30801 | 38998 ft | 547 kts | 93° |
| 2026-04-22 06:06 | 40.94699 | 41.40856 | 39000 ft | 548 kts | 93° |
| 2026-04-22 06:07 | 40.94322 | 41.50928 | 39006 ft | 549 kts | 93° |
| 2026-04-22 06:07 | 40.93935 | 41.61006 | 39026 ft | 549 kts | 93° |
| 2026-04-22 06:08 | 40.93538 | 41.71099 | 39012 ft | 550 kts | 93° |
| 2026-04-22 06:08 | 40.93133 | 41.81197 | 39028 ft | 550 kts | 93° |
| 2026-04-22 06:09 | 40.92718 | 41.91310 | 39018 ft | 551 kts | 94° |
| 2026-04-22 06:09 | 40.92294 | 42.01419 | 39032 ft | 550 kts | 94° |
| 2026-04-22 06:10 | 40.91862 | 42.11527 | 39021 ft | 551 kts | 94° |
| 2026-04-22 06:10 | 40.91424 | 42.21566 | 39032 ft | 550 kts | 94° |
| 2026-04-22 06:11 | 40.90975 | 42.31661 | 39034 ft | 550 kts | 94° |
| 2026-04-22 06:11 | 40.90516 | 42.41761 | 39029 ft | 550 kts | 94° |
| 2026-04-22 06:12 | 40.90049 | 42.51846 | 39015 ft | 550 kts | 94° |
| 2026-04-22 06:12 | 40.89573 | 42.61923 | 39026 ft | 549 kts | 94° |
| 2026-04-22 06:13 | 40.89090 | 42.71986 | 39026 ft | 549 kts | 94° |
| 2026-04-22 06:13 | 40.88597 | 42.82055 | 39024 ft | 549 kts | 94° |
| 2026-04-22 06:14 | 40.88096 | 42.92112 | 39002 ft | 548 kts | 94° |
| 2026-04-22 06:14 | 40.87588 | 43.02141 | 39018 ft | 546 kts | 94° |
| 2026-04-22 06:15 | 40.87072 | 43.12156 | 39023 ft | 546 kts | 94° |
| 2026-04-22 06:15 | 40.86548 | 43.22160 | 39027 ft | 546 kts | 94° |
| 2026-04-22 06:16 | 40.86015 | 43.32158 | 39036 ft | 546 kts | 94° |
| 2026-04-22 06:16 | 40.85473 | 43.42163 | 39039 ft | 546 kts | 94° |
| 2026-04-22 06:17 | 40.84923 | 43.52153 | 39034 ft | 545 kts | 94° |
| 2026-04-22 06:17 | 40.84365 | 43.62129 | 39034 ft | 545 kts | 95° |
| 2026-04-22 06:18 | 40.83819 | 43.72033 | 39042 ft | 544 kts | 94° |
| 2026-04-22 06:18 | 40.83481 | 43.82013 | 39049 ft | 544 kts | 92° |
| 2026-04-22 06:19 | 40.83214 | 43.91996 | 39047 ft | 544 kts | 92° |
| 2026-04-22 06:19 | 40.82905 | 44.01971 | 39040 ft | 543 kts | 92° |
| 2026-04-22 06:20 | 40.82562 | 44.11930 | 39042 ft | 543 kts | 93° |
| 2026-04-22 06:20 | 40.82206 | 44.21872 | 39035 ft | 542 kts | 93° |
| 2026-04-22 06:21 | 40.81842 | 44.31796 | 39022 ft | 541 kts | 93° |
| 2026-04-22 06:21 | 40.81472 | 44.41711 | 39016 ft | 541 kts | 93° |
| 2026-04-22 06:22 | 40.81093 | 44.51609 | 39007 ft | 540 kts | 93° |
| 2026-04-22 06:22 | 40.80708 | 44.61499 | 39004 ft | 539 kts | 94° |
| 2026-04-22 06:23 | 40.80315 | 44.71370 | 38997 ft | 539 kts | 94° |
| 2026-04-22 06:23 | 40.79913 | 44.81251 | 38991 ft | 539 kts | 94° |
| 2026-04-22 06:24 | 40.79293 | 44.96044 | 38990 ft | 538 kts | 94° |
| 2026-04-22 06:25 | 40.78871 | 45.05911 | 38983 ft | 538 kts | 94° |
| 2026-04-22 06:25 | 40.78439 | 45.15774 | 38968 ft | 539 kts | 94° |
| 2026-04-22 06:26 | 40.77999 | 45.25647 | 38975 ft | 539 kts | 94° |
| 2026-04-22 06:26 | 40.77550 | 45.35512 | 38969 ft | 539 kts | 94° |
| 2026-04-22 06:27 | 40.77094 | 45.45375 | 38971 ft | 539 kts | 94° |
| 2026-04-22 06:27 | 40.76573 | 45.55243 | 38971 ft | 540 kts | 97° |
| 2026-04-22 06:28 | 40.75679 | 45.65009 | 38968 ft | 540 kts | 99° |
| 2026-04-22 06:28 | 40.74686 | 45.74898 | 38970 ft | 541 kts | 98° |
| 2026-04-22 06:29 | 40.73750 | 45.84665 | 38970 ft | 540 kts | 98° |
| 2026-04-22 06:29 | 40.72838 | 45.94489 | 38983 ft | 540 kts | 98° |
| 2026-04-22 06:30 | 40.71924 | 46.04329 | 38985 ft | 540 kts | 98° |
| 2026-04-22 06:30 | 40.71002 | 46.14153 | 38991 ft | 540 kts | 98° |
| 2026-04-22 06:31 | 40.70227 | 46.22316 | 38993 ft | 540 kts | 98° |
| 2026-04-22 06:31 | 40.69287 | 46.32143 | 38993 ft | 540 kts | 98° |
| 2026-04-22 06:32 | 40.68339 | 46.41966 | 38994 ft | 541 kts | 98° |
| 2026-04-22 06:32 | 40.67226 | 46.53384 | 38991 ft | 541 kts | 98° |
| 2026-04-22 06:33 | 40.66416 | 46.61617 | 38991 ft | 541 kts | 99° |
| 2026-04-22 06:33 | 40.65441 | 46.71440 | 38989 ft | 541 kts | 99° |
| 2026-04-22 06:34 | 40.64465 | 46.81197 | 38985 ft | 541 kts | 99° |
| 2026-04-22 06:34 | 40.63473 | 46.91023 | 38989 ft | 542 kts | 99° |
| 2026-04-22 06:35 | 40.62471 | 47.00856 | 38993 ft | 542 kts | 99° |
| 2026-04-22 06:35 | 40.61462 | 47.10685 | 38992 ft | 542 kts | 99° |
| 2026-04-22 06:36 | 40.60654 | 47.20563 | 38994 ft | 544 kts | 94° |
| 2026-04-22 06:36 | 40.60306 | 47.30498 | 38992 ft | 544 kts | 93° |
| 2026-04-22 06:37 | 40.60031 | 47.40443 | 38987 ft | 544 kts | 93° |
| 2026-04-22 06:37 | 40.59754 | 47.50330 | 38977 ft | 544 kts | 93° |
| 2026-04-22 06:38 | 40.59459 | 47.60276 | 38969 ft | 544 kts | 93° |
| 2026-04-22 06:38 | 40.59150 | 47.70212 | 38966 ft | 543 kts | 94° |
| 2026-04-22 06:39 | 40.58831 | 47.80139 | 38969 ft | 543 kts | 94° |
| 2026-04-22 06:39 | 40.58504 | 47.90067 | 38966 ft | 543 kts | 94° |
| 2026-04-22 06:40 | 40.58259 | 47.99986 | 38966 ft | 543 kts | 90° |
| 2026-04-22 06:40 | 40.58564 | 48.09924 | 38967 ft | 544 kts | 88° |
| 2026-04-22 06:41 | 40.58974 | 48.19872 | 38955 ft | 545 kts | 88° |
| 2026-04-22 06:41 | 40.59299 | 48.29828 | 38962 ft | 545 kts | 89° |
| 2026-04-22 06:42 | 40.59557 | 48.39786 | 38956 ft | 545 kts | 89° |
| 2026-04-22 06:42 | 40.59793 | 48.49678 | 38944 ft | 545 kts | 89° |
| 2026-04-22 06:43 | 40.60023 | 48.59632 | 38956 ft | 544 kts | 89° |
| 2026-04-22 06:43 | 40.60250 | 48.69590 | 38942 ft | 544 kts | 89° |
| 2026-04-22 06:44 | 40.60468 | 48.79553 | 38945 ft | 545 kts | 89° |
| 2026-04-22 06:44 | 40.60678 | 48.89510 | 38942 ft | 545 kts | 90° |
| 2026-04-22 06:45 | 40.60879 | 48.99470 | 38939 ft | 544 kts | 90° |
| 2026-04-22 06:45 | 40.61071 | 49.09432 | 38946 ft | 545 kts | 90° |
| 2026-04-22 06:46 | 40.61029 | 49.19388 | 38956 ft | 543 kts | 98° |
| 2026-04-22 06:46 | 40.59784 | 49.29110 | 38950 ft | 542 kts | 103° |
| 2026-04-22 06:47 | 40.58265 | 49.38818 | 38964 ft | 542 kts | 104° |
| 2026-04-22 06:47 | 40.56697 | 49.48513 | 38958 ft | 542 kts | 104° |
| 2026-04-22 06:48 | 40.55098 | 49.58192 | 38961 ft | 542 kts | 104° |
| 2026-04-22 06:48 | 40.53485 | 49.67871 | 38961 ft | 542 kts | 104° |
| 2026-04-22 06:49 | 40.51873 | 49.77548 | 38949 ft | 542 kts | 104° |
| 2026-04-22 06:49 | 40.50257 | 49.87221 | 38964 ft | 542 kts | 104° |
| 2026-04-22 06:50 | 40.48634 | 49.96893 | 38966 ft | 542 kts | 104° |
| 2026-04-22 06:50 | 40.47006 | 50.06554 | 38968 ft | 542 kts | 104° |
| 2026-04-22 06:51 | 40.45625 | 50.16287 | 38960 ft | 543 kts | 101° |
| 2026-04-22 06:51 | 40.44396 | 50.26068 | 38966 ft | 543 kts | 101° |
| 2026-04-22 06:52 | 40.43130 | 50.35842 | 38971 ft | 543 kts | 102° |
| 2026-04-22 06:52 | 40.41827 | 50.45539 | 38973 ft | 543 kts | 102° |
| 2026-04-22 06:53 | 40.40492 | 50.55297 | 38973 ft | 543 kts | 102° |
| 2026-04-22 06:53 | 40.39149 | 50.65046 | 38984 ft | 543 kts | 102° |
| 2026-04-22 06:54 | 40.37798 | 50.74797 | 38983 ft | 543 kts | 102° |
| 2026-04-22 06:54 | 40.36440 | 50.84547 | 38989 ft | 543 kts | 102° |
| 2026-04-22 06:55 | 40.35075 | 50.94289 | 38987 ft | 543 kts | 103° |
| 2026-04-22 06:55 | 40.33700 | 51.04036 | 39000 ft | 544 kts | 103° |
| 2026-04-22 06:56 | 40.32317 | 51.13778 | 39001 ft | 544 kts | 103° |
| 2026-04-22 06:56 | 40.30925 | 51.23526 | 39000 ft | 544 kts | 103° |
| 2026-04-22 06:57 | 40.29524 | 51.33273 | 39000 ft | 544 kts | 103° |
| 2026-04-22 06:57 | 40.28123 | 51.42955 | 39001 ft | 545 kts | 103° |
| 2026-04-22 06:58 | 40.26704 | 51.52713 | 39004 ft | 546 kts | 103° |
| 2026-04-22 06:58 | 40.25276 | 51.62468 | 39009 ft | 546 kts | 103° |
| 2026-04-22 06:59 | 40.23840 | 51.72216 | 39007 ft | 545 kts | 103° |
| 2026-04-22 06:59 | 40.22396 | 51.81959 | 39007 ft | 545 kts | 103° |
| 2026-04-22 07:00 | 40.20945 | 51.91692 | 39007 ft | 545 kts | 103° |
| 2026-04-22 07:00 | 40.19486 | 52.01421 | 39009 ft | 545 kts | 103° |
| 2026-04-22 07:01 | 40.18019 | 52.11145 | 39005 ft | 545 kts | 103° |
| 2026-04-22 07:01 | 40.16543 | 52.20876 | 39003 ft | 545 kts | 104° |
| 2026-04-22 07:02 | 40.15061 | 52.30583 | 39001 ft | 545 kts | 104° |
| 2026-04-22 07:02 | 40.13570 | 52.40290 | 39001 ft | 545 kts | 104° |
| 2026-04-22 07:03 | 40.12072 | 52.49988 | 39000 ft | 544 kts | 104° |
| 2026-04-22 07:03 | 40.10568 | 52.59665 | 39001 ft | 544 kts | 104° |
| 2026-04-22 07:04 | 40.09056 | 52.69340 | 38993 ft | 544 kts | 104° |
| 2026-04-22 07:04 | 40.07548 | 52.78937 | 39011 ft | 543 kts | 104° |
| 2026-04-22 07:05 | 40.06024 | 52.88579 | 39021 ft | 542 kts | 104° |
| 2026-04-22 07:05 | 40.04485 | 52.98215 | 39120 ft | 539 kts | 105° |
| 2026-04-22 07:05 | 40.03453 | 53.02859 | 39490 ft | 528 kts | 112° |
| 2026-04-22 07:06 | 40.02265 | 53.07369 | 39811 ft | 523 kts | 113° |
| 2026-04-22 07:06 | 40.01038 | 53.11824 | 40026 ft | 521 kts | 114° |
| 2026-04-22 07:06 | 39.99784 | 53.16259 | 40130 ft | 521 kts | 114° |
| 2026-04-22 07:06 | 39.98517 | 53.20682 | 40251 ft | 521 kts | 114° |
| 2026-04-22 07:07 | 39.97245 | 53.25108 | 40371 ft | 521 kts | 114° |
| 2026-04-22 07:07 | 39.95974 | 53.29529 | 40494 ft | 521 kts | 114° |
| 2026-04-22 07:07 | 39.94706 | 53.33948 | 40638 ft | 520 kts | 114° |
| 2026-04-22 07:07 | 39.93438 | 53.38370 | 40760 ft | 520 kts | 114° |
| 2026-04-22 07:08 | 39.92173 | 53.42779 | 40866 ft | 520 kts | 114° |
| 2026-04-22 07:08 | 39.89636 | 53.51611 | 40989 ft | 522 kts | 115° |
| 2026-04-22 07:09 | 39.87076 | 53.60489 | 40997 ft | 526 kts | 115° |
| 2026-04-22 07:09 | 39.84492 | 53.69422 | 41001 ft | 529 kts | 115° |
| 2026-04-22 07:10 | 39.81889 | 53.78398 | 40991 ft | 531 kts | 115° |
| 2026-04-22 07:10 | 39.79289 | 53.87327 | 40990 ft | 532 kts | 115° |
| 2026-04-22 07:11 | 39.76658 | 53.96335 | 40995 ft | 533 kts | 115° |
| 2026-04-22 07:11 | 39.74019 | 54.05340 | 40996 ft | 533 kts | 115° |
| 2026-04-22 07:12 | 39.71372 | 54.14337 | 40996 ft | 533 kts | 115° |
| 2026-04-22 07:12 | 39.68717 | 54.23333 | 41003 ft | 534 kts | 115° |
| 2026-04-22 07:13 | 39.66052 | 54.32331 | 40995 ft | 534 kts | 115° |
| 2026-04-22 07:13 | 39.63381 | 54.41319 | 40992 ft | 534 kts | 115° |
| 2026-04-22 07:14 | 39.60702 | 54.50304 | 40991 ft | 534 kts | 115° |
| 2026-04-22 07:14 | 39.58016 | 54.59284 | 40987 ft | 534 kts | 116° |
| 2026-04-22 07:15 | 39.55341 | 54.68195 | 40976 ft | 534 kts | 116° |
| 2026-04-22 07:15 | 39.52642 | 54.77157 | 40985 ft | 534 kts | 116° |
| 2026-04-22 07:16 | 39.49936 | 54.86112 | 40983 ft | 534 kts | 116° |
| 2026-04-22 07:16 | 39.47223 | 54.95062 | 40982 ft | 534 kts | 116° |
| 2026-04-22 07:17 | 39.44505 | 55.03996 | 40982 ft | 534 kts | 116° |
| 2026-04-22 07:17 | 39.41778 | 55.12933 | 40979 ft | 534 kts | 116° |
| 2026-04-22 07:18 | 39.39046 | 55.21856 | 40969 ft | 534 kts | 116° |
| 2026-04-22 07:18 | 39.36308 | 55.30771 | 40978 ft | 534 kts | 116° |
| 2026-04-22 07:19 | 39.33564 | 55.39675 | 40979 ft | 534 kts | 116° |
| 2026-04-22 07:19 | 39.30812 | 55.48575 | 40982 ft | 534 kts | 116° |
| 2026-04-22 07:20 | 39.28052 | 55.57472 | 40982 ft | 533 kts | 116° |
| 2026-04-22 07:20 | 39.24947 | 55.66111 | 40982 ft | 529 kts | 122° |
| 2026-04-22 07:21 | 39.21567 | 55.74545 | 40981 ft | 529 kts | 122° |
| 2026-04-22 07:21 | 39.18240 | 55.82934 | 40982 ft | 529 kts | 122° |
| 2026-04-22 07:22 | 39.14940 | 55.91424 | 40983 ft | 530 kts | 122° |
| 2026-04-22 07:22 | 39.11657 | 55.99924 | 40982 ft | 530 kts | 122° |
| 2026-04-22 07:23 | 39.08372 | 56.08411 | 40992 ft | 530 kts | 122° |
| 2026-04-22 07:23 | 39.05076 | 56.16892 | 40988 ft | 530 kts | 122° |
| 2026-04-22 07:24 | 39.01770 | 56.25372 | 40977 ft | 530 kts | 122° |
| 2026-04-22 07:24 | 38.98861 | 56.34126 | 40978 ft | 535 kts | 115° |
| 2026-04-22 07:25 | 38.96341 | 56.43122 | 40980 ft | 536 kts | 114° |
| 2026-04-22 07:25 | 38.93877 | 56.52160 | 40979 ft | 536 kts | 114° |
| 2026-04-22 07:26 | 38.91409 | 56.61177 | 40975 ft | 535 kts | 114° |
| 2026-04-22 07:26 | 38.88924 | 56.70180 | 40971 ft | 535 kts | 115° |
| 2026-04-22 07:27 | 38.86427 | 56.79170 | 40965 ft | 535 kts | 115° |
| 2026-04-22 07:27 | 38.83922 | 56.88158 | 40961 ft | 535 kts | 115° |
| 2026-04-22 07:28 | 38.80579 | 57.00105 | 40959 ft | 535 kts | 115° |
| 2026-04-22 07:28 | 38.78060 | 57.09073 | 40955 ft | 535 kts | 115° |
| 2026-04-22 07:29 | 38.75533 | 57.18037 | 40955 ft | 535 kts | 115° |
| 2026-04-22 07:29 | 38.73001 | 57.26993 | 40955 ft | 535 kts | 115° |
| 2026-04-22 07:30 | 38.70462 | 57.35940 | 40954 ft | 535 kts | 115° |
| 2026-04-22 07:30 | 38.67915 | 57.44886 | 40954 ft | 535 kts | 115° |
| 2026-04-22 07:31 | 38.65359 | 57.53829 | 40955 ft | 535 kts | 115° |
| 2026-04-22 07:31 | 38.62798 | 57.62766 | 40957 ft | 535 kts | 116° |
| 2026-04-22 07:32 | 38.60145 | 57.71630 | 40950 ft | 532 kts | 119° |
| 2026-04-22 07:32 | 38.57095 | 57.80224 | 40946 ft | 530 kts | 121° |
| 2026-04-22 07:33 | 38.53985 | 57.88765 | 40948 ft | 531 kts | 120° |
| 2026-04-22 07:33 | 38.50923 | 57.97340 | 40953 ft | 531 kts | 120° |
| 2026-04-22 07:34 | 38.47893 | 58.05929 | 40952 ft | 530 kts | 120° |
| 2026-04-22 07:34 | 38.44866 | 58.14509 | 40955 ft | 530 kts | 120° |
| 2026-04-22 07:35 | 38.41832 | 58.23082 | 40934 ft | 530 kts | 120° |
| 2026-04-22 07:35 | 38.39296 | 58.31971 | 40949 ft | 538 kts | 111° |
| 2026-04-22 07:36 | 38.37383 | 58.41137 | 40949 ft | 540 kts | 109° |
| 2026-04-22 07:36 | 38.35556 | 58.50421 | 40945 ft | 540 kts | 109° |
| 2026-04-22 07:37 | 38.33712 | 58.59758 | 40933 ft | 540 kts | 109° |
| 2026-04-22 07:37 | 38.31867 | 58.68967 | 40951 ft | 540 kts | 109° |
| 2026-04-22 07:38 | 38.29980 | 58.78298 | 40949 ft | 541 kts | 110° |
| 2026-04-22 07:38 | 38.28110 | 58.87501 | 40953 ft | 540 kts | 110° |
| 2026-04-22 07:39 | 38.26221 | 58.96758 | 40949 ft | 540 kts | 110° |
| 2026-04-22 07:39 | 38.24325 | 59.06009 | 40952 ft | 540 kts | 110° |
| 2026-04-22 07:40 | 38.22426 | 59.15239 | 40950 ft | 540 kts | 110° |
| 2026-04-22 07:40 | 38.20517 | 59.24472 | 40957 ft | 540 kts | 110° |
| 2026-04-22 07:41 | 38.18598 | 59.33715 | 40946 ft | 541 kts | 110° |
| 2026-04-22 07:41 | 38.16674 | 59.42947 | 40939 ft | 540 kts | 110° |
| 2026-04-22 07:42 | 38.14746 | 59.52162 | 40950 ft | 539 kts | 110° |
| 2026-04-22 07:42 | 38.12825 | 59.61298 | 40950 ft | 538 kts | 110° |
| 2026-04-22 07:43 | 38.10875 | 59.70535 | 40954 ft | 538 kts | 110° |
| 2026-04-22 07:43 | 38.08942 | 59.79652 | 40951 ft | 538 kts | 110° |
| 2026-04-22 07:44 | 38.06990 | 59.88813 | 40940 ft | 538 kts | 110° |
| 2026-04-22 07:44 | 38.05033 | 59.97970 | 40949 ft | 537 kts | 110° |
| 2026-04-22 07:45 | 38.03068 | 60.07124 | 40942 ft | 538 kts | 110° |
| 2026-04-22 07:45 | 38.00708 | 60.16049 | 40947 ft | 527 kts | 122° |
| 2026-04-22 07:46 | 37.96642 | 60.23561 | 40943 ft | 513 kts | 136° |
| 2026-04-22 07:46 | 37.91890 | 60.30275 | 40941 ft | 511 kts | 139° |
| 2026-04-22 07:47 | 37.87031 | 60.36849 | 40948 ft | 511 kts | 139° |
| 2026-04-22 07:47 | 37.82179 | 60.43429 | 40936 ft | 512 kts | 139° |
| 2026-04-22 07:48 | 37.77336 | 60.50040 | 40943 ft | 512 kts | 139° |
| 2026-04-22 07:48 | 37.72483 | 60.56625 | 40944 ft | 511 kts | 140° |
| 2026-04-22 07:49 | 37.67498 | 60.63002 | 40944 ft | 509 kts | 141° |
| 2026-04-22 07:49 | 37.62512 | 60.69287 | 40944 ft | 510 kts | 141° |
| 2026-04-22 07:50 | 37.57469 | 60.75682 | 40933 ft | 511 kts | 141° |
| 2026-04-22 07:50 | 37.52474 | 60.82042 | 40926 ft | 510 kts | 141° |
| 2026-04-22 07:51 | 37.47487 | 60.88388 | 40944 ft | 510 kts | 141° |
| 2026-04-22 07:51 | 37.42490 | 60.94731 | 40945 ft | 511 kts | 141° |
| 2026-04-22 07:52 | 37.37515 | 61.01032 | 40938 ft | 511 kts | 141° |
| 2026-04-22 07:52 | 37.32507 | 61.07363 | 40937 ft | 510 kts | 141° |
| 2026-04-22 07:53 | 37.27510 | 61.13669 | 40941 ft | 509 kts | 141° |
| 2026-04-22 07:53 | 37.22512 | 61.19961 | 40942 ft | 508 kts | 141° |
| 2026-04-22 07:54 | 37.17517 | 61.26242 | 40937 ft | 509 kts | 141° |
| 2026-04-22 07:54 | 37.12504 | 61.32515 | 40935 ft | 509 kts | 141° |
| 2026-04-22 07:55 | 37.07491 | 61.38775 | 40928 ft | 509 kts | 141° |
| 2026-04-22 07:55 | 37.02474 | 61.45030 | 40925 ft | 509 kts | 141° |
| 2026-04-22 07:56 | 36.97485 | 61.51241 | 40929 ft | 510 kts | 141° |
| 2026-04-22 07:56 | 36.92456 | 61.57489 | 40924 ft | 510 kts | 141° |
| 2026-04-22 07:57 | 36.87425 | 61.63733 | 40918 ft | 510 kts | 141° |
| 2026-04-22 07:57 | 36.82389 | 61.69974 | 40916 ft | 511 kts | 141° |
| 2026-04-22 07:58 | 36.77339 | 61.76213 | 40918 ft | 511 kts | 141° |
| 2026-04-22 07:58 | 36.72285 | 61.82446 | 40916 ft | 511 kts | 141° |
| 2026-04-22 07:59 | 36.67226 | 61.88676 | 40918 ft | 511 kts | 141° |
| 2026-04-22 07:59 | 36.62161 | 61.94902 | 40907 ft | 511 kts | 141° |
| 2026-04-22 08:00 | 36.57102 | 62.01108 | 40915 ft | 511 kts | 142° |
| 2026-04-22 08:00 | 36.52034 | 62.07312 | 40911 ft | 511 kts | 142° |
| 2026-04-22 08:01 | 36.46962 | 62.13510 | 40908 ft | 512 kts | 142° |
| 2026-04-22 08:01 | 36.41920 | 62.19658 | 40903 ft | 512 kts | 142° |
| 2026-04-22 08:02 | 36.36836 | 62.25847 | 40903 ft | 511 kts | 142° |
| 2026-04-22 08:02 | 36.31750 | 62.32026 | 40898 ft | 512 kts | 142° |
| 2026-04-22 08:03 | 36.26663 | 62.38194 | 40897 ft | 512 kts | 142° |
| 2026-04-22 08:03 | 36.21570 | 62.44357 | 40882 ft | 512 kts | 142° |
| 2026-04-22 08:04 | 36.16478 | 62.50508 | 40892 ft | 511 kts | 142° |
| 2026-04-22 08:04 | 36.11389 | 62.56644 | 40885 ft | 511 kts | 142° |
| 2026-04-22 08:05 | 36.06300 | 62.62767 | 40886 ft | 510 kts | 142° |
| 2026-04-22 08:05 | 36.01243 | 62.68839 | 40888 ft | 510 kts | 142° |
| 2026-04-22 08:06 | 35.96150 | 62.74944 | 40882 ft | 510 kts | 142° |
| 2026-04-22 08:06 | 35.91052 | 62.81043 | 40884 ft | 511 kts | 142° |
| 2026-04-22 08:07 | 35.85956 | 62.87130 | 40884 ft | 509 kts | 142° |
| 2026-04-22 08:07 | 35.80862 | 62.93201 | 40880 ft | 510 kts | 142° |
| 2026-04-22 08:08 | 35.75765 | 62.99263 | 40882 ft | 509 kts | 142° |
| 2026-04-22 08:08 | 35.70664 | 63.05320 | 40882 ft | 510 kts | 142° |
| 2026-04-22 08:09 | 35.65558 | 63.11372 | 40879 ft | 510 kts | 142° |
| 2026-04-22 08:09 | 35.60451 | 63.17416 | 40878 ft | 509 kts | 142° |
| 2026-04-22 08:10 | 35.55762 | 63.24024 | 40878 ft | 516 kts | 134° |
| 2026-04-22 08:10 | 35.51348 | 63.30990 | 40875 ft | 517 kts | 133° |
| 2026-04-22 08:11 | 35.47005 | 63.37964 | 40881 ft | 518 kts | 133° |
| 2026-04-22 08:11 | 35.42620 | 63.44979 | 40876 ft | 518 kts | 133° |
| 2026-04-22 08:12 | 35.38224 | 63.51974 | 40877 ft | 518 kts | 134° |
| 2026-04-22 08:12 | 35.33819 | 63.58957 | 40876 ft | 517 kts | 134° |
| 2026-04-22 08:13 | 35.29416 | 63.65918 | 40882 ft | 517 kts | 134° |
| 2026-04-22 08:13 | 35.25022 | 63.72894 | 40878 ft | 518 kts | 134° |
| 2026-04-22 08:14 | 35.20632 | 63.79860 | 40868 ft | 517 kts | 134° |
| 2026-04-22 08:14 | 35.16271 | 63.86765 | 40897 ft | 516 kts | 134° |
| 2026-04-22 08:15 | 35.11880 | 63.93700 | 40894 ft | 516 kts | 134° |
| 2026-04-22 08:15 | 35.07483 | 64.00630 | 40908 ft | 516 kts | 134° |
| 2026-04-22 08:16 | 35.03081 | 64.07552 | 40901 ft | 515 kts | 134° |
| 2026-04-22 08:16 | 34.98688 | 64.14448 | 40926 ft | 515 kts | 134° |
| 2026-04-22 08:17 | 34.94290 | 64.21340 | 40943 ft | 515 kts | 134° |
| 2026-04-22 08:17 | 34.89892 | 64.28217 | 40958 ft | 514 kts | 134° |
| 2026-04-22 08:18 | 34.85491 | 64.35086 | 40968 ft | 514 kts | 134° |
| 2026-04-22 08:18 | 34.81097 | 64.41932 | 40979 ft | 513 kts | 134° |
| 2026-04-22 08:19 | 34.76706 | 64.48759 | 41005 ft | 512 kts | 134° |
| 2026-04-22 08:19 | 34.72315 | 64.55572 | 41022 ft | 512 kts | 134° |
| 2026-04-22 08:20 | 34.67926 | 64.62368 | 41026 ft | 511 kts | 134° |
| 2026-04-22 08:20 | 34.63536 | 64.69154 | 41034 ft | 510 kts | 134° |
| 2026-04-22 08:21 | 34.59177 | 64.75878 | 41040 ft | 510 kts | 134° |
| 2026-04-22 08:21 | 34.54787 | 64.82639 | 41038 ft | 510 kts | 134° |
| 2026-04-22 08:22 | 34.50398 | 64.89384 | 41033 ft | 509 kts | 134° |
| 2026-04-22 08:22 | 34.45995 | 64.96123 | 41038 ft | 510 kts | 134° |
| 2026-04-22 08:23 | 34.41586 | 65.02855 | 41035 ft | 510 kts | 134° |
| 2026-04-22 08:23 | 34.37886 | 65.08497 | 41026 ft | 510 kts | 134° |
| 2026-04-22 08:24 | 34.33499 | 65.15174 | 41020 ft | 510 kts | 133° |
| 2026-04-22 08:24 | 34.29074 | 65.21896 | 41025 ft | 511 kts | 134° |
| 2026-04-22 08:25 | 34.24642 | 65.28616 | 41027 ft | 511 kts | 134° |
| 2026-04-22 08:25 | 34.20196 | 65.35344 | 41028 ft | 513 kts | 133° |
| 2026-04-22 08:26 | 34.15733 | 65.42087 | 41019 ft | 514 kts | 133° |
| 2026-04-22 08:26 | 34.11257 | 65.48836 | 41025 ft | 516 kts | 133° |
| 2026-04-22 08:27 | 34.06765 | 65.55598 | 41026 ft | 517 kts | 133° |
| 2026-04-22 08:27 | 34.02272 | 65.62368 | 41020 ft | 517 kts | 133° |
| 2026-04-22 08:28 | 33.97769 | 65.69137 | 41040 ft | 518 kts | 133° |
| 2026-04-22 08:28 | 33.93257 | 65.75907 | 41035 ft | 519 kts | 133° |
| 2026-04-22 08:29 | 33.88734 | 65.82682 | 41014 ft | 519 kts | 133° |
| 2026-04-22 08:29 | 33.84211 | 65.89445 | 41033 ft | 519 kts | 133° |
| 2026-04-22 08:30 | 33.79684 | 65.96201 | 41001 ft | 519 kts | 133° |
| 2026-04-22 08:30 | 33.75158 | 66.02943 | 41000 ft | 518 kts | 133° |
| 2026-04-22 08:31 | 33.70625 | 66.09681 | 40985 ft | 518 kts | 133° |
| 2026-04-22 08:32 | 33.63831 | 66.19757 | 40969 ft | 518 kts | 134° |
| 2026-04-22 08:32 | 33.59325 | 66.26425 | 40958 ft | 517 kts | 133° |
| 2026-04-22 08:33 | 33.54762 | 66.33166 | 40956 ft | 517 kts | 133° |
| 2026-04-22 08:33 | 33.50223 | 66.39858 | 40947 ft | 517 kts | 134° |
| 2026-04-22 08:34 | 33.45714 | 66.46494 | 40947 ft | 517 kts | 134° |
| 2026-04-22 08:34 | 33.41165 | 66.53162 | 40959 ft | 517 kts | 134° |
| 2026-04-22 08:35 | 33.36602 | 66.59814 | 40962 ft | 517 kts | 133° |
| 2026-04-22 08:35 | 33.32035 | 66.66458 | 40982 ft | 517 kts | 133° |
| 2026-04-22 08:36 | 33.27467 | 66.73099 | 40991 ft | 517 kts | 133° |
| 2026-04-22 08:36 | 33.22901 | 66.79727 | 40986 ft | 517 kts | 133° |
| 2026-04-22 08:37 | 33.18329 | 66.86353 | 40994 ft | 517 kts | 133° |
| 2026-04-22 08:37 | 33.13748 | 66.92980 | 40994 ft | 517 kts | 133° |
| 2026-04-22 08:38 | 33.09164 | 66.99599 | 40995 ft | 518 kts | 134° |
| 2026-04-22 08:38 | 33.04575 | 67.06212 | 40972 ft | 518 kts | 134° |
| 2026-04-22 08:39 | 32.99984 | 67.12818 | 40982 ft | 517 kts | 134° |
| 2026-04-22 08:39 | 32.95389 | 67.19416 | 40953 ft | 517 kts | 134° |
| 2026-04-22 08:40 | 32.90795 | 67.26002 | 40952 ft | 517 kts | 134° |
| 2026-04-22 08:40 | 32.86195 | 67.32584 | 40926 ft | 517 kts | 134° |
| 2026-04-22 08:41 | 32.81623 | 67.39115 | 40911 ft | 517 kts | 133° |
| 2026-04-22 08:41 | 32.77022 | 67.45676 | 40902 ft | 517 kts | 133° |
| 2026-04-22 08:42 | 32.72319 | 67.52116 | 40896 ft | 516 kts | 135° |
| 2026-04-22 08:42 | 32.67534 | 67.58460 | 40889 ft | 516 kts | 135° |
| 2026-04-22 08:43 | 32.62751 | 67.64816 | 40881 ft | 516 kts | 135° |
| 2026-04-22 08:43 | 32.57976 | 67.71192 | 40875 ft | 517 kts | 135° |
| 2026-04-22 08:44 | 32.53206 | 67.77571 | 40874 ft | 517 kts | 135° |
| 2026-04-22 08:44 | 32.48449 | 67.83961 | 40877 ft | 518 kts | 134° |
| 2026-04-22 08:45 | 32.43859 | 67.90540 | 40868 ft | 518 kts | 132° |
| 2026-04-22 08:45 | 32.39317 | 67.97171 | 40876 ft | 519 kts | 132° |
| 2026-04-22 08:46 | 32.34749 | 68.03774 | 40873 ft | 519 kts | 132° |
| 2026-04-22 08:46 | 32.30158 | 68.10350 | 40875 ft | 519 kts | 132° |
| 2026-04-22 08:47 | 32.25585 | 68.16875 | 40876 ft | 519 kts | 132° |
| 2026-04-22 08:47 | 32.20977 | 68.23439 | 40885 ft | 520 kts | 133° |
| 2026-04-22 08:48 | 32.16348 | 68.30023 | 40887 ft | 522 kts | 133° |
| 2026-04-22 08:48 | 32.11713 | 68.36606 | 40870 ft | 522 kts | 133° |
| 2026-04-22 08:49 | 32.07061 | 68.43202 | 40872 ft | 523 kts | 133° |
| 2026-04-22 08:49 | 32.02407 | 68.49789 | 40875 ft | 523 kts | 133° |
| 2026-04-22 08:50 | 31.97749 | 68.56371 | 40861 ft | 523 kts | 133° |
| 2026-04-22 08:50 | 31.93084 | 68.62951 | 40867 ft | 524 kts | 133° |
| 2026-04-22 08:51 | 31.88408 | 68.69533 | 40867 ft | 524 kts | 133° |
| 2026-04-22 08:51 | 31.83729 | 68.76109 | 40843 ft | 524 kts | 133° |
| 2026-04-22 08:52 | 31.79049 | 68.82676 | 40842 ft | 524 kts | 133° |
| 2026-04-22 08:52 | 31.74367 | 68.89233 | 40830 ft | 524 kts | 133° |
| 2026-04-22 08:53 | 31.69681 | 68.95784 | 40830 ft | 523 kts | 133° |
| 2026-04-22 08:53 | 31.65006 | 69.02340 | 40825 ft | 524 kts | 131° |
| 2026-04-22 08:54 | 31.60483 | 69.09040 | 40823 ft | 523 kts | 130° |
| 2026-04-22 08:54 | 31.56013 | 69.15770 | 40814 ft | 523 kts | 130° |
| 2026-04-22 08:55 | 31.51521 | 69.22475 | 40815 ft | 523 kts | 130° |
| 2026-04-22 08:55 | 31.47042 | 69.29109 | 40806 ft | 522 kts | 130° |
| 2026-04-22 08:56 | 31.42527 | 69.35771 | 40808 ft | 522 kts | 130° |
| 2026-04-22 08:56 | 31.38017 | 69.42417 | 40806 ft | 521 kts | 130° |
| 2026-04-22 08:57 | 31.32973 | 69.48425 | 40812 ft | 517 kts | 141° |
| 2026-04-22 08:57 | 31.27453 | 69.53805 | 40819 ft | 516 kts | 143° |
| 2026-04-22 08:58 | 31.21858 | 69.59070 | 40817 ft | 516 kts | 143° |
| 2026-04-22 08:58 | 31.16263 | 69.64325 | 40829 ft | 516 kts | 143° |
| 2026-04-22 08:59 | 31.10675 | 69.69592 | 40839 ft | 516 kts | 143° |
| 2026-04-22 08:59 | 31.05086 | 69.74865 | 40839 ft | 516 kts | 143° |
| 2026-04-22 09:00 | 30.99500 | 69.80129 | 40843 ft | 516 kts | 143° |
| 2026-04-22 09:00 | 30.93916 | 69.85381 | 40846 ft | 516 kts | 143° |
| 2026-04-22 09:01 | 30.88368 | 69.90592 | 40833 ft | 515 kts | 143° |
| 2026-04-22 09:01 | 30.82747 | 69.95863 | 40827 ft | 515 kts | 143° |
| 2026-04-22 09:02 | 30.77201 | 70.01056 | 40824 ft | 515 kts | 143° |
| 2026-04-22 09:02 | 30.71615 | 70.06277 | 40826 ft | 515 kts | 143° |
| 2026-04-22 09:03 | 30.66027 | 70.11493 | 40814 ft | 515 kts | 143° |
| 2026-04-22 09:03 | 30.60440 | 70.16700 | 40811 ft | 515 kts | 143° |
| 2026-04-22 09:04 | 30.54850 | 70.21901 | 40801 ft | 515 kts | 143° |
| 2026-04-22 09:04 | 30.49262 | 70.27093 | 40796 ft | 515 kts | 143° |
| 2026-04-22 09:05 | 30.43674 | 70.32277 | 40794 ft | 514 kts | 143° |
| 2026-04-22 09:05 | 30.38086 | 70.37453 | 40774 ft | 514 kts | 143° |
| 2026-04-22 09:06 | 30.32493 | 70.42626 | 40767 ft | 514 kts | 143° |
| 2026-04-22 09:06 | 30.26903 | 70.47789 | 40753 ft | 514 kts | 143° |
| 2026-04-22 09:07 | 30.21308 | 70.52950 | 40746 ft | 514 kts | 143° |
| 2026-04-22 09:07 | 30.15756 | 70.58173 | 40747 ft | 515 kts | 142° |
| 2026-04-22 09:08 | 30.10229 | 70.63432 | 40737 ft | 514 kts | 142° |
| 2026-04-22 09:08 | 30.04700 | 70.68673 | 40730 ft | 514 kts | 142° |
| 2026-04-22 09:09 | 29.99163 | 70.73897 | 40735 ft | 514 kts | 142° |
| 2026-04-22 09:09 | 29.93623 | 70.79112 | 40733 ft | 514 kts | 142° |
| 2026-04-22 09:10 | 29.88083 | 70.84318 | 40731 ft | 514 kts | 142° |
| 2026-04-22 09:10 | 29.82570 | 70.89492 | 40733 ft | 514 kts | 142° |
| 2026-04-22 09:11 | 29.77024 | 70.94689 | 40727 ft | 514 kts | 142° |
| 2026-04-22 09:11 | 29.71473 | 70.99884 | 40727 ft | 514 kts | 142° |